<?xml version="1.0" encoding="UTF-8" standalone="no" ?>
<gpx xmlns="http://www.topografix.com/GPX/1/1" xmlns:xsi="http://www.w3.org/2001/XMLSchema-instance" xsi:schemaLocation="http://www.topografix.com/GPX/1/1 http://www.topografix.com/GPX/1/1/gpx.xsd" version="1.1" creator="VisuGPX - https://www.visugpx.com">
  <metadata>
    <name>2023-03+-30-46-Castelnau-Montratier 3 églises</name>
    <desc><![CDATA[Randonnée de 12 km pour environ 330m de dénivelé positif. Quelques belles côtes sur un circuit champêtre vous feront découvrir les 3 églises de Russac, Lacabrette et Divillac-Tandy, sans oublier celle de Castelnau. Retour par un sentier botanique avant de la dernière montée]]></desc>
  </metadata>
  <trk>
    <name><![CDATA[CASTELNAU EGLISES41]]></name>
    <trkseg>
      <trkpt lat="44.2681" lon="1.35177">
        <ele>250.08</ele>
        <time>2023-03-22T13:00:08Z</time>
      </trkpt>
      <trkpt lat="44.2681" lon="1.35177">
        <ele>250.08</ele>
        <time>2023-03-22T13:00:09Z</time>
      </trkpt>
      <trkpt lat="44.26813" lon="1.35171">
        <ele>250.56</ele>
        <time>2023-03-22T13:00:33Z</time>
      </trkpt>
      <trkpt lat="44.26813" lon="1.35172">
        <ele>249.12</ele>
        <time>2023-03-22T13:00:41Z</time>
      </trkpt>
      <trkpt lat="44.26818" lon="1.35159">
        <ele>248.64</ele>
        <time>2023-03-22T13:01:00Z</time>
      </trkpt>
      <trkpt lat="44.26827" lon="1.35124">
        <ele>246.72</ele>
        <time>2023-03-22T13:01:20Z</time>
      </trkpt>
      <trkpt lat="44.26831" lon="1.35112">
        <ele>246.23</ele>
        <time>2023-03-22T13:01:27Z</time>
      </trkpt>
      <trkpt lat="44.26839" lon="1.35086">
        <ele>244.31</ele>
        <time>2023-03-22T13:01:43Z</time>
      </trkpt>
      <trkpt lat="44.26848" lon="1.3506">
        <ele>242.39</ele>
        <time>2023-03-22T13:01:59Z</time>
      </trkpt>
      <trkpt lat="44.26857" lon="1.35028">
        <ele>240.95</ele>
        <time>2023-03-22T13:02:16Z</time>
      </trkpt>
      <trkpt lat="44.26866" lon="1.35004">
        <ele>239.02</ele>
        <time>2023-03-22T13:02:32Z</time>
      </trkpt>
      <trkpt lat="44.26871" lon="1.34991">
        <ele>238.06</ele>
        <time>2023-03-22T13:02:50Z</time>
      </trkpt>
      <trkpt lat="44.26867" lon="1.34989">
        <ele>236.14</ele>
        <time>2023-03-22T13:03:04Z</time>
      </trkpt>
      <trkpt lat="44.26864" lon="1.34991">
        <ele>235.66</ele>
        <time>2023-03-22T13:03:11Z</time>
      </trkpt>
      <trkpt lat="44.26863" lon="1.34992">
        <ele>235.66</ele>
        <time>2023-03-22T13:03:12Z</time>
      </trkpt>
      <trkpt lat="44.26853" lon="1.34997">
        <ele>232.78</ele>
        <time>2023-03-22T13:03:28Z</time>
      </trkpt>
      <trkpt lat="44.26855" lon="1.3499">
        <ele>231.33</ele>
        <time>2023-03-22T13:03:34Z</time>
      </trkpt>
      <trkpt lat="44.26855" lon="1.34988">
        <ele>231.33</ele>
        <time>2023-03-22T13:03:35Z</time>
      </trkpt>
      <trkpt lat="44.26859" lon="1.34966">
        <ele>227.97</ele>
        <time>2023-03-22T13:03:48Z</time>
      </trkpt>
      <trkpt lat="44.26862" lon="1.34943">
        <ele>225.57</ele>
        <time>2023-03-22T13:04:02Z</time>
      </trkpt>
      <trkpt lat="44.2686" lon="1.34931">
        <ele>223.64</ele>
        <time>2023-03-22T13:04:09Z</time>
      </trkpt>
      <trkpt lat="44.2686" lon="1.34919">
        <ele>222.68</ele>
        <time>2023-03-22T13:04:16Z</time>
      </trkpt>
      <trkpt lat="44.2686" lon="1.34893">
        <ele>219.8</ele>
        <time>2023-03-22T13:04:32Z</time>
      </trkpt>
      <trkpt lat="44.26858" lon="1.34869">
        <ele>217.4</ele>
        <time>2023-03-22T13:04:49Z</time>
      </trkpt>
      <trkpt lat="44.26855" lon="1.34847">
        <ele>215.95</ele>
        <time>2023-03-22T13:05:02Z</time>
      </trkpt>
      <trkpt lat="44.26852" lon="1.34828">
        <ele>214.99</ele>
        <time>2023-03-22T13:05:14Z</time>
      </trkpt>
      <trkpt lat="44.2685" lon="1.34821">
        <ele>213.07</ele>
        <time>2023-03-22T13:05:17Z</time>
      </trkpt>
      <trkpt lat="44.26849" lon="1.34812">
        <ele>212.11</ele>
        <time>2023-03-22T13:05:30Z</time>
      </trkpt>
      <trkpt lat="44.26848" lon="1.34808">
        <ele>211.15</ele>
        <time>2023-03-22T13:05:36Z</time>
      </trkpt>
      <trkpt lat="44.26847" lon="1.34787">
        <ele>206.82</ele>
        <time>2023-03-22T13:05:50Z</time>
      </trkpt>
      <trkpt lat="44.26845" lon="1.34772">
        <ele>203.94</ele>
        <time>2023-03-22T13:06:00Z</time>
      </trkpt>
      <trkpt lat="44.26839" lon="1.34756">
        <ele>201.53</ele>
        <time>2023-03-22T13:06:09Z</time>
      </trkpt>
      <trkpt lat="44.26832" lon="1.34737">
        <ele>198.17</ele>
        <time>2023-03-22T13:06:22Z</time>
      </trkpt>
      <trkpt lat="44.2683" lon="1.34719">
        <ele>196.73</ele>
        <time>2023-03-22T13:06:32Z</time>
      </trkpt>
      <trkpt lat="44.26828" lon="1.347">
        <ele>198.17</ele>
        <time>2023-03-22T13:06:46Z</time>
      </trkpt>
      <trkpt lat="44.2682" lon="1.34679">
        <ele>198.17</ele>
        <time>2023-03-22T13:07:03Z</time>
      </trkpt>
      <trkpt lat="44.26813" lon="1.3466">
        <ele>199.61</ele>
        <time>2023-03-22T13:07:18Z</time>
      </trkpt>
      <trkpt lat="44.26805" lon="1.34641">
        <ele>200.09</ele>
        <time>2023-03-22T13:07:31Z</time>
      </trkpt>
      <trkpt lat="44.26796" lon="1.34618">
        <ele>201.05</ele>
        <time>2023-03-22T13:07:45Z</time>
      </trkpt>
      <trkpt lat="44.26794" lon="1.34604">
        <ele>202.49</ele>
        <time>2023-03-22T13:07:58Z</time>
      </trkpt>
      <trkpt lat="44.26801" lon="1.34591">
        <ele>203.94</ele>
        <time>2023-03-22T13:08:13Z</time>
      </trkpt>
      <trkpt lat="44.2681" lon="1.34588">
        <ele>204.9</ele>
        <time>2023-03-22T13:08:30Z</time>
      </trkpt>
      <trkpt lat="44.26821" lon="1.34583">
        <ele>207.3</ele>
        <time>2023-03-22T13:08:44Z</time>
      </trkpt>
      <trkpt lat="44.26822" lon="1.34574">
        <ele>208.74</ele>
        <time>2023-03-22T13:08:57Z</time>
      </trkpt>
      <trkpt lat="44.26813" lon="1.34575">
        <ele>210.19</ele>
        <time>2023-03-22T13:09:12Z</time>
      </trkpt>
      <trkpt lat="44.26804" lon="1.34573">
        <ele>212.11</ele>
        <time>2023-03-22T13:09:25Z</time>
      </trkpt>
      <trkpt lat="44.26796" lon="1.34563">
        <ele>214.03</ele>
        <time>2023-03-22T13:09:38Z</time>
      </trkpt>
      <trkpt lat="44.26788" lon="1.3455">
        <ele>215.47</ele>
        <time>2023-03-22T13:09:51Z</time>
      </trkpt>
      <trkpt lat="44.26781" lon="1.34537">
        <ele>217.88</ele>
        <time>2023-03-22T13:10:04Z</time>
      </trkpt>
      <trkpt lat="44.26773" lon="1.34524">
        <ele>219.8</ele>
        <time>2023-03-22T13:10:19Z</time>
      </trkpt>
      <trkpt lat="44.2677" lon="1.34519">
        <ele>219.8</ele>
        <time>2023-03-22T13:10:30Z</time>
      </trkpt>
      <trkpt lat="44.26768" lon="1.34513">
        <ele>220.76</ele>
        <time>2023-03-22T13:10:46Z</time>
      </trkpt>
      <trkpt lat="44.26761" lon="1.34499">
        <ele>223.64</ele>
        <time>2023-03-22T13:11:02Z</time>
      </trkpt>
      <trkpt lat="44.26751" lon="1.34486">
        <ele>226.05</ele>
        <time>2023-03-22T13:11:19Z</time>
      </trkpt>
      <trkpt lat="44.26744" lon="1.34475">
        <ele>227.01</ele>
        <time>2023-03-22T13:11:32Z</time>
      </trkpt>
      <trkpt lat="44.26735" lon="1.34457">
        <ele>228.93</ele>
        <time>2023-03-22T13:11:48Z</time>
      </trkpt>
      <trkpt lat="44.26725" lon="1.34444">
        <ele>231.33</ele>
        <time>2023-03-22T13:12:02Z</time>
      </trkpt>
      <trkpt lat="44.26715" lon="1.34426">
        <ele>232.78</ele>
        <time>2023-03-22T13:12:19Z</time>
      </trkpt>
      <trkpt lat="44.26703" lon="1.34415">
        <ele>233.26</ele>
        <time>2023-03-22T13:12:32Z</time>
      </trkpt>
      <trkpt lat="44.26689" lon="1.34403">
        <ele>233.74</ele>
        <time>2023-03-22T13:12:47Z</time>
      </trkpt>
      <trkpt lat="44.26676" lon="1.34393">
        <ele>234.22</ele>
        <time>2023-03-22T13:13:01Z</time>
      </trkpt>
      <trkpt lat="44.26666" lon="1.34373">
        <ele>235.18</ele>
        <time>2023-03-22T13:13:17Z</time>
      </trkpt>
      <trkpt lat="44.26659" lon="1.34359">
        <ele>235.66</ele>
        <time>2023-03-22T13:13:29Z</time>
      </trkpt>
      <trkpt lat="44.26649" lon="1.34341">
        <ele>237.1</ele>
        <time>2023-03-22T13:13:45Z</time>
      </trkpt>
      <trkpt lat="44.26638" lon="1.3432">
        <ele>238.54</ele>
        <time>2023-03-22T13:14:01Z</time>
      </trkpt>
      <trkpt lat="44.26632" lon="1.34308">
        <ele>239.02</ele>
        <time>2023-03-22T13:14:16Z</time>
      </trkpt>
      <trkpt lat="44.26621" lon="1.3429">
        <ele>240.47</ele>
        <time>2023-03-22T13:14:33Z</time>
      </trkpt>
      <trkpt lat="44.26615" lon="1.34275">
        <ele>242.39</ele>
        <time>2023-03-22T13:14:47Z</time>
      </trkpt>
      <trkpt lat="44.26607" lon="1.34258">
        <ele>244.79</ele>
        <time>2023-03-22T13:15:03Z</time>
      </trkpt>
      <trkpt lat="44.26599" lon="1.34242">
        <ele>246.23</ele>
        <time>2023-03-22T13:15:18Z</time>
      </trkpt>
      <trkpt lat="44.2659" lon="1.34225">
        <ele>248.16</ele>
        <time>2023-03-22T13:15:35Z</time>
      </trkpt>
      <trkpt lat="44.26581" lon="1.34209">
        <ele>250.08</ele>
        <time>2023-03-22T13:15:50Z</time>
      </trkpt>
      <trkpt lat="44.26571" lon="1.34189">
        <ele>252</ele>
        <time>2023-03-22T13:16:08Z</time>
      </trkpt>
      <trkpt lat="44.26563" lon="1.34171">
        <ele>254.41</ele>
        <time>2023-03-22T13:16:24Z</time>
      </trkpt>
      <trkpt lat="44.26554" lon="1.34152">
        <ele>255.37</ele>
        <time>2023-03-22T13:16:41Z</time>
      </trkpt>
      <trkpt lat="44.26543" lon="1.3413">
        <ele>257.29</ele>
        <time>2023-03-22T13:16:57Z</time>
      </trkpt>
      <trkpt lat="44.26533" lon="1.34112">
        <ele>258.73</ele>
        <time>2023-03-22T13:17:14Z</time>
      </trkpt>
      <trkpt lat="44.2653" lon="1.34104">
        <ele>259.21</ele>
        <time>2023-03-22T13:17:27Z</time>
      </trkpt>
      <trkpt lat="44.26518" lon="1.34088">
        <ele>260.65</ele>
        <time>2023-03-22T13:17:45Z</time>
      </trkpt>
      <trkpt lat="44.26515" lon="1.34083">
        <ele>261.62</ele>
        <time>2023-03-22T13:18:03Z</time>
      </trkpt>
      <trkpt lat="44.26514" lon="1.34081">
        <ele>260.17</ele>
        <time>2023-03-22T13:18:13Z</time>
      </trkpt>
      <trkpt lat="44.26514" lon="1.34081">
        <ele>261.62</ele>
        <time>2023-03-22T13:18:15Z</time>
      </trkpt>
      <trkpt lat="44.26513" lon="1.34078">
        <ele>261.62</ele>
        <time>2023-03-22T13:18:37Z</time>
      </trkpt>
      <trkpt lat="44.26514" lon="1.34076">
        <ele>261.62</ele>
        <time>2023-03-22T13:18:52Z</time>
      </trkpt>
      <trkpt lat="44.26514" lon="1.34077">
        <ele>261.62</ele>
        <time>2023-03-22T13:19:22Z</time>
      </trkpt>
      <trkpt lat="44.2651" lon="1.34073">
        <ele>261.62</ele>
        <time>2023-03-22T13:19:47Z</time>
      </trkpt>
      <trkpt lat="44.26502" lon="1.34063">
        <ele>260.17</ele>
        <time>2023-03-22T13:19:58Z</time>
      </trkpt>
      <trkpt lat="44.2649" lon="1.34048">
        <ele>259.21</ele>
        <time>2023-03-22T13:20:16Z</time>
      </trkpt>
      <trkpt lat="44.26482" lon="1.3404">
        <ele>259.21</ele>
        <time>2023-03-22T13:20:30Z</time>
      </trkpt>
      <trkpt lat="44.26465" lon="1.34018">
        <ele>256.81</ele>
        <time>2023-03-22T13:20:48Z</time>
      </trkpt>
      <trkpt lat="44.26446" lon="1.33991">
        <ele>254.89</ele>
        <time>2023-03-22T13:21:07Z</time>
      </trkpt>
      <trkpt lat="44.26432" lon="1.33972">
        <ele>252.96</ele>
        <time>2023-03-22T13:21:23Z</time>
      </trkpt>
      <trkpt lat="44.2642" lon="1.33953">
        <ele>252.96</ele>
        <time>2023-03-22T13:21:40Z</time>
      </trkpt>
      <trkpt lat="44.26419" lon="1.33951">
        <ele>251.52</ele>
        <time>2023-03-22T13:21:43Z</time>
      </trkpt>
      <trkpt lat="44.26416" lon="1.33944">
        <ele>251.04</ele>
        <time>2023-03-22T13:21:58Z</time>
      </trkpt>
      <trkpt lat="44.26405" lon="1.33929">
        <ele>250.56</ele>
        <time>2023-03-22T13:22:12Z</time>
      </trkpt>
      <trkpt lat="44.2639" lon="1.33902">
        <ele>249.12</ele>
        <time>2023-03-22T13:22:31Z</time>
      </trkpt>
      <trkpt lat="44.26377" lon="1.33873">
        <ele>248.64</ele>
        <time>2023-03-22T13:22:50Z</time>
      </trkpt>
      <trkpt lat="44.26364" lon="1.33846">
        <ele>248.64</ele>
        <time>2023-03-22T13:23:07Z</time>
      </trkpt>
      <trkpt lat="44.2635" lon="1.33817">
        <ele>247.2</ele>
        <time>2023-03-22T13:23:26Z</time>
      </trkpt>
      <trkpt lat="44.26338" lon="1.33785">
        <ele>246.23</ele>
        <time>2023-03-22T13:23:46Z</time>
      </trkpt>
      <trkpt lat="44.26327" lon="1.33758">
        <ele>244.79</ele>
        <time>2023-03-22T13:24:03Z</time>
      </trkpt>
      <trkpt lat="44.26317" lon="1.33729">
        <ele>243.35</ele>
        <time>2023-03-22T13:24:22Z</time>
      </trkpt>
      <trkpt lat="44.26307" lon="1.33701">
        <ele>242.87</ele>
        <time>2023-03-22T13:24:40Z</time>
      </trkpt>
      <trkpt lat="44.26305" lon="1.33697">
        <ele>242.87</ele>
        <time>2023-03-22T13:24:43Z</time>
      </trkpt>
      <trkpt lat="44.26284" lon="1.3369">
        <ele>242.87</ele>
        <time>2023-03-22T13:25:02Z</time>
      </trkpt>
      <trkpt lat="44.26259" lon="1.33682">
        <ele>241.91</ele>
        <time>2023-03-22T13:25:23Z</time>
      </trkpt>
      <trkpt lat="44.2623" lon="1.33669">
        <ele>243.35</ele>
        <time>2023-03-22T13:25:45Z</time>
      </trkpt>
      <trkpt lat="44.26206" lon="1.33651">
        <ele>243.35</ele>
        <time>2023-03-22T13:26:06Z</time>
      </trkpt>
      <trkpt lat="44.26192" lon="1.33633">
        <ele>242.87</ele>
        <time>2023-03-22T13:26:22Z</time>
      </trkpt>
      <trkpt lat="44.2617" lon="1.33639">
        <ele>242.87</ele>
        <time>2023-03-22T13:26:41Z</time>
      </trkpt>
      <trkpt lat="44.26139" lon="1.33654">
        <ele>243.83</ele>
        <time>2023-03-22T13:27:06Z</time>
      </trkpt>
      <trkpt lat="44.26113" lon="1.33664">
        <ele>244.79</ele>
        <time>2023-03-22T13:27:28Z</time>
      </trkpt>
      <trkpt lat="44.26094" lon="1.33671">
        <ele>246.23</ele>
        <time>2023-03-22T13:27:45Z</time>
      </trkpt>
      <trkpt lat="44.2607" lon="1.33682">
        <ele>246.72</ele>
        <time>2023-03-22T13:28:06Z</time>
      </trkpt>
      <trkpt lat="44.26057" lon="1.33686">
        <ele>247.68</ele>
        <time>2023-03-22T13:28:19Z</time>
      </trkpt>
      <trkpt lat="44.26034" lon="1.33697">
        <ele>249.6</ele>
        <time>2023-03-22T13:28:40Z</time>
      </trkpt>
      <trkpt lat="44.26015" lon="1.33705">
        <ele>252.48</ele>
        <time>2023-03-22T13:28:59Z</time>
      </trkpt>
      <trkpt lat="44.25997" lon="1.33711">
        <ele>254.41</ele>
        <time>2023-03-22T13:29:18Z</time>
      </trkpt>
      <trkpt lat="44.25991" lon="1.33709">
        <ele>255.37</ele>
        <time>2023-03-22T13:29:31Z</time>
      </trkpt>
      <trkpt lat="44.25987" lon="1.33714">
        <ele>254.41</ele>
        <time>2023-03-22T13:29:45Z</time>
      </trkpt>
      <trkpt lat="44.25987" lon="1.33715">
        <ele>254.41</ele>
        <time>2023-03-22T13:29:46Z</time>
      </trkpt>
      <trkpt lat="44.25987" lon="1.33716">
        <ele>255.85</ele>
        <time>2023-03-22T13:29:48Z</time>
      </trkpt>
      <trkpt lat="44.25986" lon="1.33718">
        <ele>254.41</ele>
        <time>2023-03-22T13:29:51Z</time>
      </trkpt>
      <trkpt lat="44.25985" lon="1.3372">
        <ele>255.85</ele>
        <time>2023-03-22T13:29:54Z</time>
      </trkpt>
      <trkpt lat="44.25985" lon="1.33722">
        <ele>254.89</ele>
        <time>2023-03-22T13:29:58Z</time>
      </trkpt>
      <trkpt lat="44.25984" lon="1.33722">
        <ele>256.33</ele>
        <time>2023-03-22T13:30:00Z</time>
      </trkpt>
      <trkpt lat="44.25981" lon="1.33726">
        <ele>255.85</ele>
        <time>2023-03-22T13:30:23Z</time>
      </trkpt>
      <trkpt lat="44.25982" lon="1.33726">
        <ele>254.89</ele>
        <time>2023-03-22T13:30:43Z</time>
      </trkpt>
      <trkpt lat="44.25982" lon="1.33728">
        <ele>255.37</ele>
        <time>2023-03-22T13:31:19Z</time>
      </trkpt>
      <trkpt lat="44.25978" lon="1.33727">
        <ele>255.85</ele>
        <time>2023-03-22T13:31:56Z</time>
      </trkpt>
      <trkpt lat="44.25976" lon="1.33727">
        <ele>254.89</ele>
        <time>2023-03-22T13:31:58Z</time>
      </trkpt>
      <trkpt lat="44.25964" lon="1.33721">
        <ele>252.96</ele>
        <time>2023-03-22T13:32:10Z</time>
      </trkpt>
      <trkpt lat="44.2596" lon="1.33718">
        <ele>252</ele>
        <time>2023-03-22T13:32:14Z</time>
      </trkpt>
      <trkpt lat="44.25945" lon="1.33705">
        <ele>250.56</ele>
        <time>2023-03-22T13:32:31Z</time>
      </trkpt>
      <trkpt lat="44.25932" lon="1.33695">
        <ele>247.2</ele>
        <time>2023-03-22T13:32:45Z</time>
      </trkpt>
      <trkpt lat="44.25931" lon="1.33693">
        <ele>246.72</ele>
        <time>2023-03-22T13:32:47Z</time>
      </trkpt>
      <trkpt lat="44.25926" lon="1.33688">
        <ele>246.72</ele>
        <time>2023-03-22T13:32:51Z</time>
      </trkpt>
      <trkpt lat="44.25907" lon="1.33665">
        <ele>244.79</ele>
        <time>2023-03-22T13:33:10Z</time>
      </trkpt>
      <trkpt lat="44.25893" lon="1.33647">
        <ele>243.35</ele>
        <time>2023-03-22T13:33:25Z</time>
      </trkpt>
      <trkpt lat="44.25888" lon="1.33629">
        <ele>242.39</ele>
        <time>2023-03-22T13:33:40Z</time>
      </trkpt>
      <trkpt lat="44.25885" lon="1.33623">
        <ele>243.35</ele>
        <time>2023-03-22T13:33:50Z</time>
      </trkpt>
      <trkpt lat="44.25883" lon="1.33621">
        <ele>242.39</ele>
        <time>2023-03-22T13:33:52Z</time>
      </trkpt>
      <trkpt lat="44.25872" lon="1.33606">
        <ele>240.95</ele>
        <time>2023-03-22T13:34:07Z</time>
      </trkpt>
      <trkpt lat="44.2587" lon="1.33604">
        <ele>240.47</ele>
        <time>2023-03-22T13:34:09Z</time>
      </trkpt>
      <trkpt lat="44.25852" lon="1.33577">
        <ele>238.06</ele>
        <time>2023-03-22T13:34:28Z</time>
      </trkpt>
      <trkpt lat="44.25836" lon="1.33562">
        <ele>236.62</ele>
        <time>2023-03-22T13:34:44Z</time>
      </trkpt>
      <trkpt lat="44.25827" lon="1.33557">
        <ele>236.14</ele>
        <time>2023-03-22T13:34:55Z</time>
      </trkpt>
      <trkpt lat="44.25822" lon="1.33555">
        <ele>234.7</ele>
        <time>2023-03-22T13:34:59Z</time>
      </trkpt>
      <trkpt lat="44.25805" lon="1.33554">
        <ele>233.26</ele>
        <time>2023-03-22T13:35:13Z</time>
      </trkpt>
      <trkpt lat="44.25793" lon="1.33564">
        <ele>233.26</ele>
        <time>2023-03-22T13:35:26Z</time>
      </trkpt>
      <trkpt lat="44.25787" lon="1.3357">
        <ele>234.7</ele>
        <time>2023-03-22T13:35:32Z</time>
      </trkpt>
      <trkpt lat="44.25772" lon="1.33585">
        <ele>237.1</ele>
        <time>2023-03-22T13:35:48Z</time>
      </trkpt>
      <trkpt lat="44.25758" lon="1.33599">
        <ele>237.1</ele>
        <time>2023-03-22T13:36:05Z</time>
      </trkpt>
      <trkpt lat="44.25742" lon="1.33615">
        <ele>237.1</ele>
        <time>2023-03-22T13:36:23Z</time>
      </trkpt>
      <trkpt lat="44.25733" lon="1.33623">
        <ele>236.14</ele>
        <time>2023-03-22T13:36:32Z</time>
      </trkpt>
      <trkpt lat="44.2573" lon="1.33623">
        <ele>236.14</ele>
        <time>2023-03-22T13:36:35Z</time>
      </trkpt>
      <trkpt lat="44.2573" lon="1.33598">
        <ele>237.1</ele>
        <time>2023-03-22T13:36:53Z</time>
      </trkpt>
      <trkpt lat="44.25729" lon="1.33584">
        <ele>238.06</ele>
        <time>2023-03-22T13:37:07Z</time>
      </trkpt>
      <trkpt lat="44.25729" lon="1.33566">
        <ele>239.02</ele>
        <time>2023-03-22T13:37:22Z</time>
      </trkpt>
      <trkpt lat="44.25727" lon="1.3354">
        <ele>239.99</ele>
        <time>2023-03-22T13:37:39Z</time>
      </trkpt>
      <trkpt lat="44.25727" lon="1.33525">
        <ele>240.95</ele>
        <time>2023-03-22T13:37:54Z</time>
      </trkpt>
      <trkpt lat="44.25726" lon="1.33496">
        <ele>241.91</ele>
        <time>2023-03-22T13:38:14Z</time>
      </trkpt>
      <trkpt lat="44.25721" lon="1.33473">
        <ele>244.31</ele>
        <time>2023-03-22T13:38:31Z</time>
      </trkpt>
      <trkpt lat="44.2572" lon="1.33453">
        <ele>247.2</ele>
        <time>2023-03-22T13:38:48Z</time>
      </trkpt>
      <trkpt lat="44.25713" lon="1.33442">
        <ele>250.08</ele>
        <time>2023-03-22T13:39:02Z</time>
      </trkpt>
      <trkpt lat="44.25696" lon="1.33437">
        <ele>252.48</ele>
        <time>2023-03-22T13:39:21Z</time>
      </trkpt>
      <trkpt lat="44.2569" lon="1.33435">
        <ele>252.48</ele>
        <time>2023-03-22T13:39:27Z</time>
      </trkpt>
      <trkpt lat="44.25672" lon="1.33431">
        <ele>253.93</ele>
        <time>2023-03-22T13:39:44Z</time>
      </trkpt>
      <trkpt lat="44.25657" lon="1.33425">
        <ele>253.93</ele>
        <time>2023-03-22T13:40:00Z</time>
      </trkpt>
      <trkpt lat="44.25647" lon="1.33417">
        <ele>253.93</ele>
        <time>2023-03-22T13:40:14Z</time>
      </trkpt>
      <trkpt lat="44.2564" lon="1.33418">
        <ele>251.52</ele>
        <time>2023-03-22T13:40:26Z</time>
      </trkpt>
      <trkpt lat="44.2564" lon="1.33421">
        <ele>250.56</ele>
        <time>2023-03-22T13:40:41Z</time>
      </trkpt>
      <trkpt lat="44.25644" lon="1.33426">
        <ele>250.56</ele>
        <time>2023-03-22T13:41:12Z</time>
      </trkpt>
      <trkpt lat="44.25644" lon="1.33422">
        <ele>252.96</ele>
        <time>2023-03-22T13:41:27Z</time>
      </trkpt>
      <trkpt lat="44.25643" lon="1.33421">
        <ele>250.08</ele>
        <time>2023-03-22T13:41:29Z</time>
      </trkpt>
      <trkpt lat="44.25642" lon="1.33419">
        <ele>252.48</ele>
        <time>2023-03-22T13:41:39Z</time>
      </trkpt>
      <trkpt lat="44.25642" lon="1.33419">
        <ele>248.64</ele>
        <time>2023-03-22T13:41:47Z</time>
      </trkpt>
      <trkpt lat="44.25642" lon="1.33419">
        <ele>248.64</ele>
        <time>2023-03-22T13:41:48Z</time>
      </trkpt>
      <trkpt lat="44.25641" lon="1.33419">
        <ele>252.96</ele>
        <time>2023-03-22T13:41:50Z</time>
      </trkpt>
      <trkpt lat="44.25642" lon="1.33419">
        <ele>249.6</ele>
        <time>2023-03-22T13:41:51Z</time>
      </trkpt>
      <trkpt lat="44.2564" lon="1.33418">
        <ele>250.08</ele>
        <time>2023-03-22T13:42:06Z</time>
      </trkpt>
      <trkpt lat="44.2564" lon="1.33418">
        <ele>251.52</ele>
        <time>2023-03-22T13:42:12Z</time>
      </trkpt>
      <trkpt lat="44.25641" lon="1.33416">
        <ele>251.52</ele>
        <time>2023-03-22T13:42:39Z</time>
      </trkpt>
      <trkpt lat="44.25641" lon="1.33416">
        <ele>251.52</ele>
        <time>2023-03-22T13:43:04Z</time>
      </trkpt>
      <trkpt lat="44.25641" lon="1.33417">
        <ele>250.56</ele>
        <time>2023-03-22T13:43:14Z</time>
      </trkpt>
      <trkpt lat="44.25643" lon="1.3342">
        <ele>250.56</ele>
        <time>2023-03-22T13:43:45Z</time>
      </trkpt>
      <trkpt lat="44.25642" lon="1.33421">
        <ele>250.56</ele>
        <time>2023-03-22T13:44:09Z</time>
      </trkpt>
      <trkpt lat="44.2564" lon="1.3342">
        <ele>250.56</ele>
        <time>2023-03-22T13:44:39Z</time>
      </trkpt>
      <trkpt lat="44.25638" lon="1.3342">
        <ele>250.56</ele>
        <time>2023-03-22T13:45:00Z</time>
      </trkpt>
      <trkpt lat="44.25628" lon="1.33417">
        <ele>250.56</ele>
        <time>2023-03-22T13:45:09Z</time>
      </trkpt>
      <trkpt lat="44.25626" lon="1.33416">
        <ele>249.6</ele>
        <time>2023-03-22T13:45:11Z</time>
      </trkpt>
      <trkpt lat="44.25604" lon="1.33404">
        <ele>247.68</ele>
        <time>2023-03-22T13:45:28Z</time>
      </trkpt>
      <trkpt lat="44.25581" lon="1.3339">
        <ele>246.23</ele>
        <time>2023-03-22T13:45:47Z</time>
      </trkpt>
      <trkpt lat="44.25556" lon="1.3337">
        <ele>243.83</ele>
        <time>2023-03-22T13:46:08Z</time>
      </trkpt>
      <trkpt lat="44.25528" lon="1.33351">
        <ele>242.87</ele>
        <time>2023-03-22T13:46:30Z</time>
      </trkpt>
      <trkpt lat="44.25508" lon="1.33339">
        <ele>241.43</ele>
        <time>2023-03-22T13:46:47Z</time>
      </trkpt>
      <trkpt lat="44.25484" lon="1.3332">
        <ele>239.99</ele>
        <time>2023-03-22T13:47:07Z</time>
      </trkpt>
      <trkpt lat="44.25462" lon="1.33303">
        <ele>239.51</ele>
        <time>2023-03-22T13:47:26Z</time>
      </trkpt>
      <trkpt lat="44.25439" lon="1.33285">
        <ele>238.54</ele>
        <time>2023-03-22T13:47:46Z</time>
      </trkpt>
      <trkpt lat="44.25418" lon="1.33271">
        <ele>238.06</ele>
        <time>2023-03-22T13:48:04Z</time>
      </trkpt>
      <trkpt lat="44.25393" lon="1.33252">
        <ele>238.06</ele>
        <time>2023-03-22T13:48:25Z</time>
      </trkpt>
      <trkpt lat="44.25368" lon="1.33234">
        <ele>237.58</ele>
        <time>2023-03-22T13:48:47Z</time>
      </trkpt>
      <trkpt lat="44.25341" lon="1.33215">
        <ele>237.1</ele>
        <time>2023-03-22T13:49:10Z</time>
      </trkpt>
      <trkpt lat="44.25316" lon="1.33197">
        <ele>235.66</ele>
        <time>2023-03-22T13:49:31Z</time>
      </trkpt>
      <trkpt lat="44.25295" lon="1.33183">
        <ele>235.18</ele>
        <time>2023-03-22T13:49:50Z</time>
      </trkpt>
      <trkpt lat="44.25276" lon="1.33166">
        <ele>234.22</ele>
        <time>2023-03-22T13:50:09Z</time>
      </trkpt>
      <trkpt lat="44.25263" lon="1.33156">
        <ele>234.22</ele>
        <time>2023-03-22T13:50:22Z</time>
      </trkpt>
      <trkpt lat="44.25241" lon="1.33145">
        <ele>235.18</ele>
        <time>2023-03-22T13:50:42Z</time>
      </trkpt>
      <trkpt lat="44.25222" lon="1.33137">
        <ele>235.66</ele>
        <time>2023-03-22T13:50:58Z</time>
      </trkpt>
      <trkpt lat="44.25202" lon="1.33129">
        <ele>235.66</ele>
        <time>2023-03-22T13:51:15Z</time>
      </trkpt>
      <trkpt lat="44.25177" lon="1.33122">
        <ele>236.14</ele>
        <time>2023-03-22T13:51:35Z</time>
      </trkpt>
      <trkpt lat="44.25151" lon="1.33119">
        <ele>236.14</ele>
        <time>2023-03-22T13:51:56Z</time>
      </trkpt>
      <trkpt lat="44.25131" lon="1.33119">
        <ele>234.7</ele>
        <time>2023-03-22T13:52:11Z</time>
      </trkpt>
      <trkpt lat="44.251" lon="1.33131">
        <ele>234.7</ele>
        <time>2023-03-22T13:52:35Z</time>
      </trkpt>
      <trkpt lat="44.2508" lon="1.33145">
        <ele>234.7</ele>
        <time>2023-03-22T13:52:53Z</time>
      </trkpt>
      <trkpt lat="44.25059" lon="1.33158">
        <ele>234.22</ele>
        <time>2023-03-22T13:53:11Z</time>
      </trkpt>
      <trkpt lat="44.25047" lon="1.33165">
        <ele>234.22</ele>
        <time>2023-03-22T13:53:22Z</time>
      </trkpt>
      <trkpt lat="44.25025" lon="1.3318">
        <ele>234.22</ele>
        <time>2023-03-22T13:53:41Z</time>
      </trkpt>
      <trkpt lat="44.25003" lon="1.33194">
        <ele>233.74</ele>
        <time>2023-03-22T13:54:00Z</time>
      </trkpt>
      <trkpt lat="44.24983" lon="1.33205">
        <ele>233.26</ele>
        <time>2023-03-22T13:54:18Z</time>
      </trkpt>
      <trkpt lat="44.24964" lon="1.33216">
        <ele>232.78</ele>
        <time>2023-03-22T13:54:36Z</time>
      </trkpt>
      <trkpt lat="44.24945" lon="1.33228">
        <ele>232.3</ele>
        <time>2023-03-22T13:54:53Z</time>
      </trkpt>
      <trkpt lat="44.24922" lon="1.33247">
        <ele>230.85</ele>
        <time>2023-03-22T13:55:11Z</time>
      </trkpt>
      <trkpt lat="44.24906" lon="1.33265">
        <ele>228.93</ele>
        <time>2023-03-22T13:55:27Z</time>
      </trkpt>
      <trkpt lat="44.24892" lon="1.33279">
        <ele>225.57</ele>
        <time>2023-03-22T13:55:41Z</time>
      </trkpt>
      <trkpt lat="44.2489" lon="1.33282">
        <ele>226.53</ele>
        <time>2023-03-22T13:55:45Z</time>
      </trkpt>
      <trkpt lat="44.24874" lon="1.33292">
        <ele>225.57</ele>
        <time>2023-03-22T13:56:01Z</time>
      </trkpt>
      <trkpt lat="44.24857" lon="1.33291">
        <ele>224.61</ele>
        <time>2023-03-22T13:56:17Z</time>
      </trkpt>
      <trkpt lat="44.24838" lon="1.33286">
        <ele>223.64</ele>
        <time>2023-03-22T13:56:34Z</time>
      </trkpt>
      <trkpt lat="44.24827" lon="1.33284">
        <ele>223.16</ele>
        <time>2023-03-22T13:56:42Z</time>
      </trkpt>
      <trkpt lat="44.24811" lon="1.33278">
        <ele>222.68</ele>
        <time>2023-03-22T13:56:56Z</time>
      </trkpt>
      <trkpt lat="44.24789" lon="1.33272">
        <ele>221.72</ele>
        <time>2023-03-22T13:57:13Z</time>
      </trkpt>
      <trkpt lat="44.24771" lon="1.33273">
        <ele>220.76</ele>
        <time>2023-03-22T13:57:29Z</time>
      </trkpt>
      <trkpt lat="44.24752" lon="1.33282">
        <ele>220.76</ele>
        <time>2023-03-22T13:57:46Z</time>
      </trkpt>
      <trkpt lat="44.24732" lon="1.33297">
        <ele>220.28</ele>
        <time>2023-03-22T13:58:03Z</time>
      </trkpt>
      <trkpt lat="44.24711" lon="1.33314">
        <ele>218.84</ele>
        <time>2023-03-22T13:58:20Z</time>
      </trkpt>
      <trkpt lat="44.24693" lon="1.3333">
        <ele>217.4</ele>
        <time>2023-03-22T13:58:37Z</time>
      </trkpt>
      <trkpt lat="44.24684" lon="1.33337">
        <ele>216.43</ele>
        <time>2023-03-22T13:58:45Z</time>
      </trkpt>
      <trkpt lat="44.24666" lon="1.33351">
        <ele>214.51</ele>
        <time>2023-03-22T13:59:02Z</time>
      </trkpt>
      <trkpt lat="44.24646" lon="1.33361">
        <ele>211.63</ele>
        <time>2023-03-22T13:59:19Z</time>
      </trkpt>
      <trkpt lat="44.24622" lon="1.33378">
        <ele>209.22</ele>
        <time>2023-03-22T13:59:39Z</time>
      </trkpt>
      <trkpt lat="44.24608" lon="1.33384">
        <ele>207.78</ele>
        <time>2023-03-22T13:59:54Z</time>
      </trkpt>
      <trkpt lat="44.246" lon="1.33386">
        <ele>207.3</ele>
        <time>2023-03-22T14:00:08Z</time>
      </trkpt>
      <trkpt lat="44.246" lon="1.3339">
        <ele>207.3</ele>
        <time>2023-03-22T14:00:21Z</time>
      </trkpt>
      <trkpt lat="44.24596" lon="1.33396">
        <ele>206.82</ele>
        <time>2023-03-22T14:00:35Z</time>
      </trkpt>
      <trkpt lat="44.24593" lon="1.33398">
        <ele>206.82</ele>
        <time>2023-03-22T14:00:52Z</time>
      </trkpt>
      <trkpt lat="44.24593" lon="1.33401">
        <ele>207.78</ele>
        <time>2023-03-22T14:01:22Z</time>
      </trkpt>
      <trkpt lat="44.24592" lon="1.33401">
        <ele>207.78</ele>
        <time>2023-03-22T14:01:23Z</time>
      </trkpt>
      <trkpt lat="44.24582" lon="1.33409">
        <ele>205.86</ele>
        <time>2023-03-22T14:01:35Z</time>
      </trkpt>
      <trkpt lat="44.24581" lon="1.33411">
        <ele>205.86</ele>
        <time>2023-03-22T14:01:36Z</time>
      </trkpt>
      <trkpt lat="44.2458" lon="1.33412">
        <ele>205.86</ele>
        <time>2023-03-22T14:01:37Z</time>
      </trkpt>
      <trkpt lat="44.24579" lon="1.33413">
        <ele>205.86</ele>
        <time>2023-03-22T14:01:38Z</time>
      </trkpt>
      <trkpt lat="44.24578" lon="1.33414">
        <ele>205.86</ele>
        <time>2023-03-22T14:01:39Z</time>
      </trkpt>
      <trkpt lat="44.24575" lon="1.33418">
        <ele>205.38</ele>
        <time>2023-03-22T14:01:43Z</time>
      </trkpt>
      <trkpt lat="44.24574" lon="1.33418">
        <ele>205.38</ele>
        <time>2023-03-22T14:01:44Z</time>
      </trkpt>
      <trkpt lat="44.24573" lon="1.3342">
        <ele>205.38</ele>
        <time>2023-03-22T14:01:45Z</time>
      </trkpt>
      <trkpt lat="44.24559" lon="1.3344">
        <ele>205.38</ele>
        <time>2023-03-22T14:02:03Z</time>
      </trkpt>
      <trkpt lat="44.24551" lon="1.33453">
        <ele>205.38</ele>
        <time>2023-03-22T14:02:17Z</time>
      </trkpt>
      <trkpt lat="44.24537" lon="1.33476">
        <ele>204.42</ele>
        <time>2023-03-22T14:02:34Z</time>
      </trkpt>
      <trkpt lat="44.24524" lon="1.33491">
        <ele>203.46</ele>
        <time>2023-03-22T14:02:49Z</time>
      </trkpt>
      <trkpt lat="44.24506" lon="1.33505">
        <ele>202.49</ele>
        <time>2023-03-22T14:03:06Z</time>
      </trkpt>
      <trkpt lat="44.24498" lon="1.33513">
        <ele>201.05</ele>
        <time>2023-03-22T14:03:13Z</time>
      </trkpt>
      <trkpt lat="44.24497" lon="1.33514">
        <ele>200.57</ele>
        <time>2023-03-22T14:03:14Z</time>
      </trkpt>
      <trkpt lat="44.24496" lon="1.33514">
        <ele>200.57</ele>
        <time>2023-03-22T14:03:15Z</time>
      </trkpt>
      <trkpt lat="44.24479" lon="1.33534">
        <ele>198.17</ele>
        <time>2023-03-22T14:03:33Z</time>
      </trkpt>
      <trkpt lat="44.24466" lon="1.33551">
        <ele>195.28</ele>
        <time>2023-03-22T14:03:47Z</time>
      </trkpt>
      <trkpt lat="44.24449" lon="1.33576">
        <ele>191.44</ele>
        <time>2023-03-22T14:04:04Z</time>
      </trkpt>
      <trkpt lat="44.24434" lon="1.33596">
        <ele>188.56</ele>
        <time>2023-03-22T14:04:19Z</time>
      </trkpt>
      <trkpt lat="44.24414" lon="1.33618">
        <ele>185.19</ele>
        <time>2023-03-22T14:04:38Z</time>
      </trkpt>
      <trkpt lat="44.24393" lon="1.33632">
        <ele>182.31</ele>
        <time>2023-03-22T14:04:56Z</time>
      </trkpt>
      <trkpt lat="44.24366" lon="1.33641">
        <ele>179.9</ele>
        <time>2023-03-22T14:05:17Z</time>
      </trkpt>
      <trkpt lat="44.24342" lon="1.33645">
        <ele>178.94</ele>
        <time>2023-03-22T14:05:37Z</time>
      </trkpt>
      <trkpt lat="44.24335" lon="1.33647">
        <ele>178.46</ele>
        <time>2023-03-22T14:05:45Z</time>
      </trkpt>
      <trkpt lat="44.24333" lon="1.33656">
        <ele>177.5</ele>
        <time>2023-03-22T14:05:51Z</time>
      </trkpt>
      <trkpt lat="44.2434" lon="1.33687">
        <ele>175.1</ele>
        <time>2023-03-22T14:06:10Z</time>
      </trkpt>
      <trkpt lat="44.24346" lon="1.33715">
        <ele>173.17</ele>
        <time>2023-03-22T14:06:27Z</time>
      </trkpt>
      <trkpt lat="44.24352" lon="1.33746">
        <ele>170.77</ele>
        <time>2023-03-22T14:06:45Z</time>
      </trkpt>
      <trkpt lat="44.2436" lon="1.33777">
        <ele>167.89</ele>
        <time>2023-03-22T14:07:05Z</time>
      </trkpt>
      <trkpt lat="44.24365" lon="1.33809">
        <ele>166.45</ele>
        <time>2023-03-22T14:07:24Z</time>
      </trkpt>
      <trkpt lat="44.24365" lon="1.33839">
        <ele>165.48</ele>
        <time>2023-03-22T14:07:42Z</time>
      </trkpt>
      <trkpt lat="44.24364" lon="1.33873">
        <ele>165</ele>
        <time>2023-03-22T14:08:02Z</time>
      </trkpt>
      <trkpt lat="44.24368" lon="1.33901">
        <ele>165</ele>
        <time>2023-03-22T14:08:19Z</time>
      </trkpt>
      <trkpt lat="44.24368" lon="1.3393">
        <ele>164.52</ele>
        <time>2023-03-22T14:08:37Z</time>
      </trkpt>
      <trkpt lat="44.24369" lon="1.33943">
        <ele>164.04</ele>
        <time>2023-03-22T14:08:46Z</time>
      </trkpt>
      <trkpt lat="44.24369" lon="1.33945">
        <ele>164.04</ele>
        <time>2023-03-22T14:08:47Z</time>
      </trkpt>
      <trkpt lat="44.24369" lon="1.33946">
        <ele>164.04</ele>
        <time>2023-03-22T14:08:48Z</time>
      </trkpt>
      <trkpt lat="44.24366" lon="1.3397">
        <ele>163.56</ele>
        <time>2023-03-22T14:09:06Z</time>
      </trkpt>
      <trkpt lat="44.24366" lon="1.33972">
        <ele>163.08</ele>
        <time>2023-03-22T14:09:38Z</time>
      </trkpt>
      <trkpt lat="44.24367" lon="1.3397">
        <ele>163.08</ele>
        <time>2023-03-22T14:10:03Z</time>
      </trkpt>
      <trkpt lat="44.24368" lon="1.33969">
        <ele>162.6</ele>
        <time>2023-03-22T14:10:20Z</time>
      </trkpt>
      <trkpt lat="44.24367" lon="1.33969">
        <ele>162.6</ele>
        <time>2023-03-22T14:10:37Z</time>
      </trkpt>
      <trkpt lat="44.24362" lon="1.33974">
        <ele>162.6</ele>
        <time>2023-03-22T14:10:50Z</time>
      </trkpt>
      <trkpt lat="44.24356" lon="1.33988">
        <ele>161.64</ele>
        <time>2023-03-22T14:11:06Z</time>
      </trkpt>
      <trkpt lat="44.24352" lon="1.34005">
        <ele>161.16</ele>
        <time>2023-03-22T14:11:24Z</time>
      </trkpt>
      <trkpt lat="44.24347" lon="1.3402">
        <ele>160.68</ele>
        <time>2023-03-22T14:11:38Z</time>
      </trkpt>
      <trkpt lat="44.24342" lon="1.34034">
        <ele>160.2</ele>
        <time>2023-03-22T14:11:54Z</time>
      </trkpt>
      <trkpt lat="44.24334" lon="1.34048">
        <ele>159.72</ele>
        <time>2023-03-22T14:12:09Z</time>
      </trkpt>
      <trkpt lat="44.24332" lon="1.34052">
        <ele>159.72</ele>
        <time>2023-03-22T14:12:21Z</time>
      </trkpt>
      <trkpt lat="44.24333" lon="1.34066">
        <ele>159.24</ele>
        <time>2023-03-22T14:12:41Z</time>
      </trkpt>
      <trkpt lat="44.24336" lon="1.34073">
        <ele>159.24</ele>
        <time>2023-03-22T14:12:55Z</time>
      </trkpt>
      <trkpt lat="44.24339" lon="1.34072">
        <ele>160.2</ele>
        <time>2023-03-22T14:13:05Z</time>
      </trkpt>
      <trkpt lat="44.2434" lon="1.34069">
        <ele>160.2</ele>
        <time>2023-03-22T14:13:20Z</time>
      </trkpt>
      <trkpt lat="44.24337" lon="1.34068">
        <ele>160.2</ele>
        <time>2023-03-22T14:13:33Z</time>
      </trkpt>
      <trkpt lat="44.24338" lon="1.34068">
        <ele>160.2</ele>
        <time>2023-03-22T14:13:48Z</time>
      </trkpt>
      <trkpt lat="44.24338" lon="1.34074">
        <ele>160.2</ele>
        <time>2023-03-22T14:14:00Z</time>
      </trkpt>
      <trkpt lat="44.24341" lon="1.34078">
        <ele>160.2</ele>
        <time>2023-03-22T14:14:16Z</time>
      </trkpt>
      <trkpt lat="44.24346" lon="1.34074">
        <ele>160.2</ele>
        <time>2023-03-22T14:14:34Z</time>
      </trkpt>
      <trkpt lat="44.24346" lon="1.34087">
        <ele>160.2</ele>
        <time>2023-03-22T14:14:55Z</time>
      </trkpt>
      <trkpt lat="44.24348" lon="1.34095">
        <ele>159.72</ele>
        <time>2023-03-22T14:15:19Z</time>
      </trkpt>
      <trkpt lat="44.24338" lon="1.34106">
        <ele>159.72</ele>
        <time>2023-03-22T14:15:33Z</time>
      </trkpt>
      <trkpt lat="44.24344" lon="1.34093">
        <ele>159.72</ele>
        <time>2023-03-22T14:15:57Z</time>
      </trkpt>
      <trkpt lat="44.24348" lon="1.34087">
        <ele>159.72</ele>
        <time>2023-03-22T14:16:19Z</time>
      </trkpt>
      <trkpt lat="44.24343" lon="1.34094">
        <ele>159.72</ele>
        <time>2023-03-22T14:16:32Z</time>
      </trkpt>
      <trkpt lat="44.24338" lon="1.34081">
        <ele>159.72</ele>
        <time>2023-03-22T14:16:44Z</time>
      </trkpt>
      <trkpt lat="44.24338" lon="1.34079">
        <ele>159.72</ele>
        <time>2023-03-22T14:17:09Z</time>
      </trkpt>
      <trkpt lat="44.24336" lon="1.34078">
        <ele>159.72</ele>
        <time>2023-03-22T14:17:41Z</time>
      </trkpt>
      <trkpt lat="44.24338" lon="1.34076">
        <ele>159.72</ele>
        <time>2023-03-22T14:17:56Z</time>
      </trkpt>
      <trkpt lat="44.24338" lon="1.3408">
        <ele>159.72</ele>
        <time>2023-03-22T14:18:22Z</time>
      </trkpt>
      <trkpt lat="44.24338" lon="1.34076">
        <ele>159.72</ele>
        <time>2023-03-22T14:18:45Z</time>
      </trkpt>
      <trkpt lat="44.24334" lon="1.3407">
        <ele>159.72</ele>
        <time>2023-03-22T14:19:03Z</time>
      </trkpt>
      <trkpt lat="44.24331" lon="1.34066">
        <ele>159.72</ele>
        <time>2023-03-22T14:19:18Z</time>
      </trkpt>
      <trkpt lat="44.24326" lon="1.34063">
        <ele>159.72</ele>
        <time>2023-03-22T14:19:32Z</time>
      </trkpt>
      <trkpt lat="44.24323" lon="1.34062">
        <ele>159.72</ele>
        <time>2023-03-22T14:19:36Z</time>
      </trkpt>
      <trkpt lat="44.24322" lon="1.34062">
        <ele>159.72</ele>
        <time>2023-03-22T14:19:37Z</time>
      </trkpt>
      <trkpt lat="44.24321" lon="1.34063">
        <ele>158.27</ele>
        <time>2023-03-22T14:19:38Z</time>
      </trkpt>
      <trkpt lat="44.24304" lon="1.34082">
        <ele>155.87</ele>
        <time>2023-03-22T14:19:57Z</time>
      </trkpt>
      <trkpt lat="44.24291" lon="1.34098">
        <ele>152.99</ele>
        <time>2023-03-22T14:20:11Z</time>
      </trkpt>
      <trkpt lat="44.24277" lon="1.34114">
        <ele>150.1</ele>
        <time>2023-03-22T14:20:24Z</time>
      </trkpt>
      <trkpt lat="44.24263" lon="1.34127">
        <ele>146.74</ele>
        <time>2023-03-22T14:20:37Z</time>
      </trkpt>
      <trkpt lat="44.24249" lon="1.3414">
        <ele>143.37</ele>
        <time>2023-03-22T14:20:50Z</time>
      </trkpt>
      <trkpt lat="44.24234" lon="1.34155">
        <ele>140.01</ele>
        <time>2023-03-22T14:21:04Z</time>
      </trkpt>
      <trkpt lat="44.24218" lon="1.34171">
        <ele>136.64</ele>
        <time>2023-03-22T14:21:18Z</time>
      </trkpt>
      <trkpt lat="44.24197" lon="1.34193">
        <ele>133.76</ele>
        <time>2023-03-22T14:21:36Z</time>
      </trkpt>
      <trkpt lat="44.24173" lon="1.34218">
        <ele>131.84</ele>
        <time>2023-03-22T14:21:57Z</time>
      </trkpt>
      <trkpt lat="44.24165" lon="1.34234">
        <ele>130.4</ele>
        <time>2023-03-22T14:22:08Z</time>
      </trkpt>
      <trkpt lat="44.24165" lon="1.34236">
        <ele>130.4</ele>
        <time>2023-03-22T14:22:09Z</time>
      </trkpt>
      <trkpt lat="44.24166" lon="1.34238">
        <ele>130.4</ele>
        <time>2023-03-22T14:22:10Z</time>
      </trkpt>
      <trkpt lat="44.24166" lon="1.34239">
        <ele>130.4</ele>
        <time>2023-03-22T14:22:11Z</time>
      </trkpt>
      <trkpt lat="44.24168" lon="1.3424">
        <ele>130.4</ele>
        <time>2023-03-22T14:22:12Z</time>
      </trkpt>
      <trkpt lat="44.24168" lon="1.34241">
        <ele>130.4</ele>
        <time>2023-03-22T14:22:13Z</time>
      </trkpt>
      <trkpt lat="44.24169" lon="1.34243">
        <ele>130.4</ele>
        <time>2023-03-22T14:22:14Z</time>
      </trkpt>
      <trkpt lat="44.24171" lon="1.34244">
        <ele>130.4</ele>
        <time>2023-03-22T14:22:15Z</time>
      </trkpt>
      <trkpt lat="44.24172" lon="1.34245">
        <ele>130.4</ele>
        <time>2023-03-22T14:22:16Z</time>
      </trkpt>
      <trkpt lat="44.24172" lon="1.34246">
        <ele>130.4</ele>
        <time>2023-03-22T14:22:17Z</time>
      </trkpt>
      <trkpt lat="44.24173" lon="1.34247">
        <ele>130.4</ele>
        <time>2023-03-22T14:22:18Z</time>
      </trkpt>
      <trkpt lat="44.24174" lon="1.34249">
        <ele>130.4</ele>
        <time>2023-03-22T14:22:19Z</time>
      </trkpt>
      <trkpt lat="44.24192" lon="1.34272">
        <ele>130.4</ele>
        <time>2023-03-22T14:22:37Z</time>
      </trkpt>
      <trkpt lat="44.2421" lon="1.34295">
        <ele>130.4</ele>
        <time>2023-03-22T14:22:56Z</time>
      </trkpt>
      <trkpt lat="44.24225" lon="1.34317">
        <ele>130.4</ele>
        <time>2023-03-22T14:23:13Z</time>
      </trkpt>
      <trkpt lat="44.24242" lon="1.34341">
        <ele>130.4</ele>
        <time>2023-03-22T14:23:32Z</time>
      </trkpt>
      <trkpt lat="44.2426" lon="1.34367">
        <ele>130.4</ele>
        <time>2023-03-22T14:23:51Z</time>
      </trkpt>
      <trkpt lat="44.24269" lon="1.3438">
        <ele>129.92</ele>
        <time>2023-03-22T14:24:02Z</time>
      </trkpt>
      <trkpt lat="44.24269" lon="1.34382">
        <ele>129.92</ele>
        <time>2023-03-22T14:24:03Z</time>
      </trkpt>
      <trkpt lat="44.2428" lon="1.34407">
        <ele>129.92</ele>
        <time>2023-03-22T14:24:20Z</time>
      </trkpt>
      <trkpt lat="44.24295" lon="1.34427">
        <ele>129.92</ele>
        <time>2023-03-22T14:24:37Z</time>
      </trkpt>
      <trkpt lat="44.24299" lon="1.34445">
        <ele>129.92</ele>
        <time>2023-03-22T14:24:49Z</time>
      </trkpt>
      <trkpt lat="44.24287" lon="1.34468">
        <ele>128.47</ele>
        <time>2023-03-22T14:25:07Z</time>
      </trkpt>
      <trkpt lat="44.24274" lon="1.34496">
        <ele>127.99</ele>
        <time>2023-03-22T14:25:25Z</time>
      </trkpt>
      <trkpt lat="44.24271" lon="1.34512">
        <ele>128.95</ele>
        <time>2023-03-22T14:25:39Z</time>
      </trkpt>
      <trkpt lat="44.24269" lon="1.34524">
        <ele>128.95</ele>
        <time>2023-03-22T14:25:50Z</time>
      </trkpt>
      <trkpt lat="44.24268" lon="1.34533">
        <ele>128.95</ele>
        <time>2023-03-22T14:25:56Z</time>
      </trkpt>
      <trkpt lat="44.24261" lon="1.3456">
        <ele>128.95</ele>
        <time>2023-03-22T14:26:13Z</time>
      </trkpt>
      <trkpt lat="44.24252" lon="1.34587">
        <ele>129.43</ele>
        <time>2023-03-22T14:26:30Z</time>
      </trkpt>
      <trkpt lat="44.24239" lon="1.3461">
        <ele>129.92</ele>
        <time>2023-03-22T14:26:48Z</time>
      </trkpt>
      <trkpt lat="44.24228" lon="1.34625">
        <ele>130.4</ele>
        <time>2023-03-22T14:27:02Z</time>
      </trkpt>
      <trkpt lat="44.24227" lon="1.34626">
        <ele>130.4</ele>
        <time>2023-03-22T14:27:03Z</time>
      </trkpt>
      <trkpt lat="44.24211" lon="1.34635">
        <ele>131.36</ele>
        <time>2023-03-22T14:27:18Z</time>
      </trkpt>
      <trkpt lat="44.24187" lon="1.34645">
        <ele>132.32</ele>
        <time>2023-03-22T14:27:38Z</time>
      </trkpt>
      <trkpt lat="44.24166" lon="1.34656">
        <ele>134.24</ele>
        <time>2023-03-22T14:27:56Z</time>
      </trkpt>
      <trkpt lat="44.2416" lon="1.34661">
        <ele>134.72</ele>
        <time>2023-03-22T14:28:02Z</time>
      </trkpt>
      <trkpt lat="44.24147" lon="1.34671">
        <ele>136.16</ele>
        <time>2023-03-22T14:28:14Z</time>
      </trkpt>
      <trkpt lat="44.24134" lon="1.34685">
        <ele>137.61</ele>
        <time>2023-03-22T14:28:28Z</time>
      </trkpt>
      <trkpt lat="44.24125" lon="1.34699">
        <ele>139.05</ele>
        <time>2023-03-22T14:28:40Z</time>
      </trkpt>
      <trkpt lat="44.24115" lon="1.34715">
        <ele>140.01</ele>
        <time>2023-03-22T14:28:53Z</time>
      </trkpt>
      <trkpt lat="44.24112" lon="1.34721">
        <ele>141.45</ele>
        <time>2023-03-22T14:28:57Z</time>
      </trkpt>
      <trkpt lat="44.24104" lon="1.34733">
        <ele>141.93</ele>
        <time>2023-03-22T14:29:07Z</time>
      </trkpt>
      <trkpt lat="44.24097" lon="1.34751">
        <ele>143.37</ele>
        <time>2023-03-22T14:29:20Z</time>
      </trkpt>
      <trkpt lat="44.24091" lon="1.34767">
        <ele>146.74</ele>
        <time>2023-03-22T14:29:34Z</time>
      </trkpt>
      <trkpt lat="44.24084" lon="1.34785">
        <ele>147.22</ele>
        <time>2023-03-22T14:29:48Z</time>
      </trkpt>
      <trkpt lat="44.24083" lon="1.34804">
        <ele>148.18</ele>
        <time>2023-03-22T14:30:01Z</time>
      </trkpt>
      <trkpt lat="44.24083" lon="1.34815">
        <ele>148.18</ele>
        <time>2023-03-22T14:30:08Z</time>
      </trkpt>
      <trkpt lat="44.24084" lon="1.34825">
        <ele>149.14</ele>
        <time>2023-03-22T14:30:15Z</time>
      </trkpt>
      <trkpt lat="44.24083" lon="1.34841">
        <ele>151.06</ele>
        <time>2023-03-22T14:30:29Z</time>
      </trkpt>
      <trkpt lat="44.24081" lon="1.34859">
        <ele>152.51</ele>
        <time>2023-03-22T14:30:45Z</time>
      </trkpt>
      <trkpt lat="44.24076" lon="1.34879">
        <ele>153.95</ele>
        <time>2023-03-22T14:31:00Z</time>
      </trkpt>
      <trkpt lat="44.24072" lon="1.34899">
        <ele>156.35</ele>
        <time>2023-03-22T14:31:15Z</time>
      </trkpt>
      <trkpt lat="44.24066" lon="1.34923">
        <ele>158.27</ele>
        <time>2023-03-22T14:31:32Z</time>
      </trkpt>
      <trkpt lat="44.24062" lon="1.34946">
        <ele>160.2</ele>
        <time>2023-03-22T14:31:49Z</time>
      </trkpt>
      <trkpt lat="44.24056" lon="1.34967">
        <ele>162.12</ele>
        <time>2023-03-22T14:32:05Z</time>
      </trkpt>
      <trkpt lat="44.24048" lon="1.3499">
        <ele>163.08</ele>
        <time>2023-03-22T14:32:22Z</time>
      </trkpt>
      <trkpt lat="44.24038" lon="1.35018">
        <ele>164.04</ele>
        <time>2023-03-22T14:32:41Z</time>
      </trkpt>
      <trkpt lat="44.24031" lon="1.35034">
        <ele>164.52</ele>
        <time>2023-03-22T14:32:53Z</time>
      </trkpt>
      <trkpt lat="44.2403" lon="1.35035">
        <ele>164.52</ele>
        <time>2023-03-22T14:32:54Z</time>
      </trkpt>
      <trkpt lat="44.24029" lon="1.35037">
        <ele>164.52</ele>
        <time>2023-03-22T14:32:55Z</time>
      </trkpt>
      <trkpt lat="44.24018" lon="1.35058">
        <ele>164.04</ele>
        <time>2023-03-22T14:33:12Z</time>
      </trkpt>
      <trkpt lat="44.24012" lon="1.35076">
        <ele>164.04</ele>
        <time>2023-03-22T14:33:27Z</time>
      </trkpt>
      <trkpt lat="44.24012" lon="1.35084">
        <ele>164.04</ele>
        <time>2023-03-22T14:33:47Z</time>
      </trkpt>
      <trkpt lat="44.24012" lon="1.35086">
        <ele>164.04</ele>
        <time>2023-03-22T14:33:48Z</time>
      </trkpt>
      <trkpt lat="44.24012" lon="1.35091">
        <ele>163.08</ele>
        <time>2023-03-22T14:33:51Z</time>
      </trkpt>
      <trkpt lat="44.24015" lon="1.35111">
        <ele>162.12</ele>
        <time>2023-03-22T14:34:06Z</time>
      </trkpt>
      <trkpt lat="44.24014" lon="1.35123">
        <ele>160.68</ele>
        <time>2023-03-22T14:34:15Z</time>
      </trkpt>
      <trkpt lat="44.24011" lon="1.35147">
        <ele>160.2</ele>
        <time>2023-03-22T14:34:31Z</time>
      </trkpt>
      <trkpt lat="44.24005" lon="1.35162">
        <ele>160.2</ele>
        <time>2023-03-22T14:34:42Z</time>
      </trkpt>
      <trkpt lat="44.23998" lon="1.3518">
        <ele>159.72</ele>
        <time>2023-03-22T14:34:57Z</time>
      </trkpt>
      <trkpt lat="44.2399" lon="1.35201">
        <ele>159.72</ele>
        <time>2023-03-22T14:35:13Z</time>
      </trkpt>
      <trkpt lat="44.2398" lon="1.35221">
        <ele>159.72</ele>
        <time>2023-03-22T14:35:28Z</time>
      </trkpt>
      <trkpt lat="44.2397" lon="1.35236">
        <ele>159.72</ele>
        <time>2023-03-22T14:35:41Z</time>
      </trkpt>
      <trkpt lat="44.23962" lon="1.35246">
        <ele>159.72</ele>
        <time>2023-03-22T14:35:51Z</time>
      </trkpt>
      <trkpt lat="44.23962" lon="1.3525">
        <ele>159.72</ele>
        <time>2023-03-22T14:35:55Z</time>
      </trkpt>
      <trkpt lat="44.23962" lon="1.35252">
        <ele>159.72</ele>
        <time>2023-03-22T14:35:57Z</time>
      </trkpt>
      <trkpt lat="44.23962" lon="1.35254">
        <ele>159.72</ele>
        <time>2023-03-22T14:35:58Z</time>
      </trkpt>
      <trkpt lat="44.23962" lon="1.35255">
        <ele>159.72</ele>
        <time>2023-03-22T14:35:59Z</time>
      </trkpt>
      <trkpt lat="44.23962" lon="1.35257">
        <ele>159.72</ele>
        <time>2023-03-22T14:36:00Z</time>
      </trkpt>
      <trkpt lat="44.23961" lon="1.35258">
        <ele>159.72</ele>
        <time>2023-03-22T14:36:01Z</time>
      </trkpt>
      <trkpt lat="44.23961" lon="1.35259">
        <ele>159.72</ele>
        <time>2023-03-22T14:36:02Z</time>
      </trkpt>
      <trkpt lat="44.23966" lon="1.35275">
        <ele>159.72</ele>
        <time>2023-03-22T14:36:16Z</time>
      </trkpt>
      <trkpt lat="44.23966" lon="1.35282">
        <ele>159.72</ele>
        <time>2023-03-22T14:36:30Z</time>
      </trkpt>
      <trkpt lat="44.23965" lon="1.35296">
        <ele>161.16</ele>
        <time>2023-03-22T14:36:44Z</time>
      </trkpt>
      <trkpt lat="44.23963" lon="1.35307">
        <ele>163.08</ele>
        <time>2023-03-22T14:36:57Z</time>
      </trkpt>
      <trkpt lat="44.23962" lon="1.35321">
        <ele>165</ele>
        <time>2023-03-22T14:37:11Z</time>
      </trkpt>
      <trkpt lat="44.2396" lon="1.35335">
        <ele>167.89</ele>
        <time>2023-03-22T14:37:25Z</time>
      </trkpt>
      <trkpt lat="44.23958" lon="1.35352">
        <ele>169.81</ele>
        <time>2023-03-22T14:37:42Z</time>
      </trkpt>
      <trkpt lat="44.23957" lon="1.35368">
        <ele>171.25</ele>
        <time>2023-03-22T14:37:56Z</time>
      </trkpt>
      <trkpt lat="44.23956" lon="1.35381">
        <ele>172.21</ele>
        <time>2023-03-22T14:38:08Z</time>
      </trkpt>
      <trkpt lat="44.23955" lon="1.35397">
        <ele>173.17</ele>
        <time>2023-03-22T14:38:21Z</time>
      </trkpt>
      <trkpt lat="44.23954" lon="1.35413">
        <ele>174.14</ele>
        <time>2023-03-22T14:38:35Z</time>
      </trkpt>
      <trkpt lat="44.23954" lon="1.35429">
        <ele>176.06</ele>
        <time>2023-03-22T14:38:49Z</time>
      </trkpt>
      <trkpt lat="44.23952" lon="1.35445">
        <ele>177.5</ele>
        <time>2023-03-22T14:39:03Z</time>
      </trkpt>
      <trkpt lat="44.23951" lon="1.35459">
        <ele>178.94</ele>
        <time>2023-03-22T14:39:17Z</time>
      </trkpt>
      <trkpt lat="44.23951" lon="1.35475">
        <ele>180.87</ele>
        <time>2023-03-22T14:39:32Z</time>
      </trkpt>
      <trkpt lat="44.23949" lon="1.35486">
        <ele>182.79</ele>
        <time>2023-03-22T14:39:48Z</time>
      </trkpt>
      <trkpt lat="44.23947" lon="1.35502">
        <ele>184.71</ele>
        <time>2023-03-22T14:40:03Z</time>
      </trkpt>
      <trkpt lat="44.23944" lon="1.35517">
        <ele>186.63</ele>
        <time>2023-03-22T14:40:18Z</time>
      </trkpt>
      <trkpt lat="44.23939" lon="1.35533">
        <ele>188.56</ele>
        <time>2023-03-22T14:40:33Z</time>
      </trkpt>
      <trkpt lat="44.23933" lon="1.35549">
        <ele>189.52</ele>
        <time>2023-03-22T14:40:47Z</time>
      </trkpt>
      <trkpt lat="44.2393" lon="1.35565">
        <ele>190.48</ele>
        <time>2023-03-22T14:41:01Z</time>
      </trkpt>
      <trkpt lat="44.23926" lon="1.35581">
        <ele>191.92</ele>
        <time>2023-03-22T14:41:14Z</time>
      </trkpt>
      <trkpt lat="44.23923" lon="1.35598">
        <ele>193.84</ele>
        <time>2023-03-22T14:41:29Z</time>
      </trkpt>
      <trkpt lat="44.23922" lon="1.35617">
        <ele>195.77</ele>
        <time>2023-03-22T14:41:43Z</time>
      </trkpt>
      <trkpt lat="44.2392" lon="1.35636">
        <ele>197.69</ele>
        <time>2023-03-22T14:42:00Z</time>
      </trkpt>
      <trkpt lat="44.23913" lon="1.35654">
        <ele>199.13</ele>
        <time>2023-03-22T14:42:14Z</time>
      </trkpt>
      <trkpt lat="44.23915" lon="1.35668">
        <ele>200.57</ele>
        <time>2023-03-22T14:42:26Z</time>
      </trkpt>
      <trkpt lat="44.23905" lon="1.35678">
        <ele>202.01</ele>
        <time>2023-03-22T14:42:42Z</time>
      </trkpt>
      <trkpt lat="44.23896" lon="1.35696">
        <ele>204.42</ele>
        <time>2023-03-22T14:42:59Z</time>
      </trkpt>
      <trkpt lat="44.23891" lon="1.35715">
        <ele>205.86</ele>
        <time>2023-03-22T14:43:16Z</time>
      </trkpt>
      <trkpt lat="44.23888" lon="1.35728">
        <ele>206.82</ele>
        <time>2023-03-22T14:43:29Z</time>
      </trkpt>
      <trkpt lat="44.23882" lon="1.35744">
        <ele>207.78</ele>
        <time>2023-03-22T14:43:44Z</time>
      </trkpt>
      <trkpt lat="44.23882" lon="1.35746">
        <ele>208.74</ele>
        <time>2023-03-22T14:44:02Z</time>
      </trkpt>
      <trkpt lat="44.23881" lon="1.35751">
        <ele>208.74</ele>
        <time>2023-03-22T14:44:16Z</time>
      </trkpt>
      <trkpt lat="44.23878" lon="1.35759">
        <ele>209.22</ele>
        <time>2023-03-22T14:44:28Z</time>
      </trkpt>
      <trkpt lat="44.23876" lon="1.35765">
        <ele>209.22</ele>
        <time>2023-03-22T14:44:34Z</time>
      </trkpt>
      <trkpt lat="44.23871" lon="1.3579">
        <ele>211.63</ele>
        <time>2023-03-22T14:44:51Z</time>
      </trkpt>
      <trkpt lat="44.23871" lon="1.35808">
        <ele>213.07</ele>
        <time>2023-03-22T14:45:04Z</time>
      </trkpt>
      <trkpt lat="44.23871" lon="1.35821">
        <ele>214.03</ele>
        <time>2023-03-22T14:45:20Z</time>
      </trkpt>
      <trkpt lat="44.23876" lon="1.35838">
        <ele>215.95</ele>
        <time>2023-03-22T14:45:36Z</time>
      </trkpt>
      <trkpt lat="44.23886" lon="1.35857">
        <ele>217.88</ele>
        <time>2023-03-22T14:45:53Z</time>
      </trkpt>
      <trkpt lat="44.23894" lon="1.35873">
        <ele>219.8</ele>
        <time>2023-03-22T14:46:07Z</time>
      </trkpt>
      <trkpt lat="44.23898" lon="1.35893">
        <ele>221.24</ele>
        <time>2023-03-22T14:46:23Z</time>
      </trkpt>
      <trkpt lat="44.23892" lon="1.35906">
        <ele>222.2</ele>
        <time>2023-03-22T14:46:35Z</time>
      </trkpt>
      <trkpt lat="44.2389" lon="1.35906">
        <ele>222.2</ele>
        <time>2023-03-22T14:46:55Z</time>
      </trkpt>
      <trkpt lat="44.23888" lon="1.35905">
        <ele>222.2</ele>
        <time>2023-03-22T14:47:23Z</time>
      </trkpt>
      <trkpt lat="44.23888" lon="1.35908">
        <ele>222.2</ele>
        <time>2023-03-22T14:47:40Z</time>
      </trkpt>
      <trkpt lat="44.23888" lon="1.35908">
        <ele>221.72</ele>
        <time>2023-03-22T14:48:02Z</time>
      </trkpt>
      <trkpt lat="44.2389" lon="1.35912">
        <ele>221.72</ele>
        <time>2023-03-22T14:48:19Z</time>
      </trkpt>
      <trkpt lat="44.23887" lon="1.35913">
        <ele>221.72</ele>
        <time>2023-03-22T14:48:48Z</time>
      </trkpt>
      <trkpt lat="44.2389" lon="1.35915">
        <ele>221.72</ele>
        <time>2023-03-22T14:49:06Z</time>
      </trkpt>
      <trkpt lat="44.2389" lon="1.35916">
        <ele>221.72</ele>
        <time>2023-03-22T14:49:32Z</time>
      </trkpt>
      <trkpt lat="44.23894" lon="1.35912">
        <ele>223.16</ele>
        <time>2023-03-22T14:49:58Z</time>
      </trkpt>
      <trkpt lat="44.23894" lon="1.35909">
        <ele>223.16</ele>
        <time>2023-03-22T14:50:19Z</time>
      </trkpt>
      <trkpt lat="44.23895" lon="1.35911">
        <ele>223.16</ele>
        <time>2023-03-22T14:50:40Z</time>
      </trkpt>
      <trkpt lat="44.23895" lon="1.35911">
        <ele>223.64</ele>
        <time>2023-03-22T14:51:02Z</time>
      </trkpt>
      <trkpt lat="44.23895" lon="1.35909">
        <ele>223.64</ele>
        <time>2023-03-22T14:51:30Z</time>
      </trkpt>
      <trkpt lat="44.23895" lon="1.35908">
        <ele>223.64</ele>
        <time>2023-03-22T14:51:59Z</time>
      </trkpt>
      <trkpt lat="44.23895" lon="1.35909">
        <ele>223.64</ele>
        <time>2023-03-22T14:52:23Z</time>
      </trkpt>
      <trkpt lat="44.23894" lon="1.3591">
        <ele>223.64</ele>
        <time>2023-03-22T14:52:51Z</time>
      </trkpt>
      <trkpt lat="44.23894" lon="1.3591">
        <ele>222.2</ele>
        <time>2023-03-22T14:53:00Z</time>
      </trkpt>
      <trkpt lat="44.23898" lon="1.35909">
        <ele>222.2</ele>
        <time>2023-03-22T14:53:24Z</time>
      </trkpt>
      <trkpt lat="44.23899" lon="1.3591">
        <ele>222.2</ele>
        <time>2023-03-22T14:53:50Z</time>
      </trkpt>
      <trkpt lat="44.23897" lon="1.35912">
        <ele>223.64</ele>
        <time>2023-03-22T14:54:09Z</time>
      </trkpt>
      <trkpt lat="44.23899" lon="1.3591">
        <ele>223.64</ele>
        <time>2023-03-22T14:54:37Z</time>
      </trkpt>
      <trkpt lat="44.23901" lon="1.35911">
        <ele>223.64</ele>
        <time>2023-03-22T14:55:04Z</time>
      </trkpt>
      <trkpt lat="44.23893" lon="1.35912">
        <ele>223.64</ele>
        <time>2023-03-22T14:55:25Z</time>
      </trkpt>
      <trkpt lat="44.2389" lon="1.35908">
        <ele>223.64</ele>
        <time>2023-03-22T14:55:50Z</time>
      </trkpt>
      <trkpt lat="44.2389" lon="1.35909">
        <ele>224.12</ele>
        <time>2023-03-22T14:56:13Z</time>
      </trkpt>
      <trkpt lat="44.23889" lon="1.35908">
        <ele>224.12</ele>
        <time>2023-03-22T14:56:32Z</time>
      </trkpt>
      <trkpt lat="44.23881" lon="1.35906">
        <ele>224.12</ele>
        <time>2023-03-22T14:56:47Z</time>
      </trkpt>
      <trkpt lat="44.23876" lon="1.3591">
        <ele>223.16</ele>
        <time>2023-03-22T14:56:55Z</time>
      </trkpt>
      <trkpt lat="44.23877" lon="1.3591">
        <ele>223.16</ele>
        <time>2023-03-22T14:57:17Z</time>
      </trkpt>
      <trkpt lat="44.23877" lon="1.3591">
        <ele>223.16</ele>
        <time>2023-03-22T14:57:40Z</time>
      </trkpt>
      <trkpt lat="44.23873" lon="1.3591">
        <ele>223.16</ele>
        <time>2023-03-22T14:57:48Z</time>
      </trkpt>
      <trkpt lat="44.23872" lon="1.3591">
        <ele>223.16</ele>
        <time>2023-03-22T14:57:49Z</time>
      </trkpt>
      <trkpt lat="44.23858" lon="1.35901">
        <ele>222.68</ele>
        <time>2023-03-22T14:58:04Z</time>
      </trkpt>
      <trkpt lat="44.23842" lon="1.3589">
        <ele>222.2</ele>
        <time>2023-03-22T14:58:18Z</time>
      </trkpt>
      <trkpt lat="44.23841" lon="1.3589">
        <ele>222.2</ele>
        <time>2023-03-22T14:58:19Z</time>
      </trkpt>
      <trkpt lat="44.23824" lon="1.35876">
        <ele>221.24</ele>
        <time>2023-03-22T14:58:36Z</time>
      </trkpt>
      <trkpt lat="44.23819" lon="1.35872">
        <ele>221.24</ele>
        <time>2023-03-22T14:58:40Z</time>
      </trkpt>
      <trkpt lat="44.23813" lon="1.35868">
        <ele>221.24</ele>
        <time>2023-03-22T14:58:46Z</time>
      </trkpt>
      <trkpt lat="44.23794" lon="1.35856">
        <ele>220.76</ele>
        <time>2023-03-22T14:59:03Z</time>
      </trkpt>
      <trkpt lat="44.23782" lon="1.35851">
        <ele>220.76</ele>
        <time>2023-03-22T14:59:12Z</time>
      </trkpt>
      <trkpt lat="44.23781" lon="1.35851">
        <ele>220.76</ele>
        <time>2023-03-22T14:59:13Z</time>
      </trkpt>
      <trkpt lat="44.23764" lon="1.35843">
        <ele>220.76</ele>
        <time>2023-03-22T14:59:31Z</time>
      </trkpt>
      <trkpt lat="44.23759" lon="1.35842">
        <ele>220.76</ele>
        <time>2023-03-22T14:59:35Z</time>
      </trkpt>
      <trkpt lat="44.23757" lon="1.35842">
        <ele>220.76</ele>
        <time>2023-03-22T14:59:36Z</time>
      </trkpt>
      <trkpt lat="44.23756" lon="1.35842">
        <ele>220.76</ele>
        <time>2023-03-22T14:59:37Z</time>
      </trkpt>
      <trkpt lat="44.23754" lon="1.35842">
        <ele>220.76</ele>
        <time>2023-03-22T14:59:38Z</time>
      </trkpt>
      <trkpt lat="44.23752" lon="1.35842">
        <ele>220.76</ele>
        <time>2023-03-22T14:59:39Z</time>
      </trkpt>
      <trkpt lat="44.23729" lon="1.35843">
        <ele>220.76</ele>
        <time>2023-03-22T14:59:54Z</time>
      </trkpt>
      <trkpt lat="44.2371" lon="1.35849">
        <ele>221.72</ele>
        <time>2023-03-22T15:00:08Z</time>
      </trkpt>
      <trkpt lat="44.23695" lon="1.35857">
        <ele>221.72</ele>
        <time>2023-03-22T15:00:21Z</time>
      </trkpt>
      <trkpt lat="44.23678" lon="1.35867">
        <ele>221.72</ele>
        <time>2023-03-22T15:00:35Z</time>
      </trkpt>
      <trkpt lat="44.23664" lon="1.35879">
        <ele>222.2</ele>
        <time>2023-03-22T15:00:48Z</time>
      </trkpt>
      <trkpt lat="44.23648" lon="1.35891">
        <ele>222.68</ele>
        <time>2023-03-22T15:01:03Z</time>
      </trkpt>
      <trkpt lat="44.23648" lon="1.35892">
        <ele>222.68</ele>
        <time>2023-03-22T15:01:04Z</time>
      </trkpt>
      <trkpt lat="44.23646" lon="1.35893">
        <ele>222.68</ele>
        <time>2023-03-22T15:01:05Z</time>
      </trkpt>
      <trkpt lat="44.2363" lon="1.35904">
        <ele>223.16</ele>
        <time>2023-03-22T15:01:18Z</time>
      </trkpt>
      <trkpt lat="44.23615" lon="1.35916">
        <ele>224.12</ele>
        <time>2023-03-22T15:01:31Z</time>
      </trkpt>
      <trkpt lat="44.23595" lon="1.35932">
        <ele>226.53</ele>
        <time>2023-03-22T15:01:48Z</time>
      </trkpt>
      <trkpt lat="44.23592" lon="1.35934">
        <ele>224.12</ele>
        <time>2023-03-22T15:01:51Z</time>
      </trkpt>
      <trkpt lat="44.23577" lon="1.35944">
        <ele>223.64</ele>
        <time>2023-03-22T15:02:04Z</time>
      </trkpt>
      <trkpt lat="44.23571" lon="1.35946">
        <ele>223.64</ele>
        <time>2023-03-22T15:02:09Z</time>
      </trkpt>
      <trkpt lat="44.2357" lon="1.35947">
        <ele>225.09</ele>
        <time>2023-03-22T15:02:10Z</time>
      </trkpt>
      <trkpt lat="44.23568" lon="1.35948">
        <ele>225.09</ele>
        <time>2023-03-22T15:02:11Z</time>
      </trkpt>
      <trkpt lat="44.23554" lon="1.35953">
        <ele>224.61</ele>
        <time>2023-03-22T15:02:24Z</time>
      </trkpt>
      <trkpt lat="44.23541" lon="1.35954">
        <ele>224.61</ele>
        <time>2023-03-22T15:02:36Z</time>
      </trkpt>
      <trkpt lat="44.23526" lon="1.35952">
        <ele>225.09</ele>
        <time>2023-03-22T15:02:49Z</time>
      </trkpt>
      <trkpt lat="44.23512" lon="1.35949">
        <ele>226.05</ele>
        <time>2023-03-22T15:03:02Z</time>
      </trkpt>
      <trkpt lat="44.23505" lon="1.35944">
        <ele>226.05</ele>
        <time>2023-03-22T15:03:09Z</time>
      </trkpt>
      <trkpt lat="44.23505" lon="1.35942">
        <ele>226.05</ele>
        <time>2023-03-22T15:03:10Z</time>
      </trkpt>
      <trkpt lat="44.23502" lon="1.35935">
        <ele>227.49</ele>
        <time>2023-03-22T15:03:16Z</time>
      </trkpt>
      <trkpt lat="44.23502" lon="1.35934">
        <ele>227.49</ele>
        <time>2023-03-22T15:03:17Z</time>
      </trkpt>
      <trkpt lat="44.23502" lon="1.35931">
        <ele>227.97</ele>
        <time>2023-03-22T15:03:20Z</time>
      </trkpt>
      <trkpt lat="44.23502" lon="1.35929">
        <ele>227.97</ele>
        <time>2023-03-22T15:03:21Z</time>
      </trkpt>
      <trkpt lat="44.23502" lon="1.35928">
        <ele>227.97</ele>
        <time>2023-03-22T15:03:22Z</time>
      </trkpt>
      <trkpt lat="44.23503" lon="1.35924">
        <ele>227.97</ele>
        <time>2023-03-22T15:03:25Z</time>
      </trkpt>
      <trkpt lat="44.23502" lon="1.35922">
        <ele>227.97</ele>
        <time>2023-03-22T15:03:26Z</time>
      </trkpt>
      <trkpt lat="44.23503" lon="1.3592">
        <ele>227.97</ele>
        <time>2023-03-22T15:03:27Z</time>
      </trkpt>
      <trkpt lat="44.23504" lon="1.35916">
        <ele>228.45</ele>
        <time>2023-03-22T15:03:31Z</time>
      </trkpt>
      <trkpt lat="44.23507" lon="1.35912">
        <ele>228.45</ele>
        <time>2023-03-22T15:03:39Z</time>
      </trkpt>
      <trkpt lat="44.2351" lon="1.35912">
        <ele>228.45</ele>
        <time>2023-03-22T15:03:43Z</time>
      </trkpt>
      <trkpt lat="44.23512" lon="1.35913">
        <ele>228.45</ele>
        <time>2023-03-22T15:03:46Z</time>
      </trkpt>
      <trkpt lat="44.23513" lon="1.35914">
        <ele>228.45</ele>
        <time>2023-03-22T15:03:47Z</time>
      </trkpt>
      <trkpt lat="44.23514" lon="1.35915">
        <ele>228.45</ele>
        <time>2023-03-22T15:03:48Z</time>
      </trkpt>
      <trkpt lat="44.23515" lon="1.35919">
        <ele>228.45</ele>
        <time>2023-03-22T15:04:01Z</time>
      </trkpt>
      <trkpt lat="44.23517" lon="1.35921">
        <ele>228.45</ele>
        <time>2023-03-22T15:04:09Z</time>
      </trkpt>
      <trkpt lat="44.23516" lon="1.35937">
        <ele>228.45</ele>
        <time>2023-03-22T15:04:21Z</time>
      </trkpt>
      <trkpt lat="44.23511" lon="1.35938">
        <ele>228.45</ele>
        <time>2023-03-22T15:04:33Z</time>
      </trkpt>
      <trkpt lat="44.23511" lon="1.35941">
        <ele>228.45</ele>
        <time>2023-03-22T15:04:49Z</time>
      </trkpt>
      <trkpt lat="44.23511" lon="1.35941">
        <ele>226.53</ele>
        <time>2023-03-22T15:05:00Z</time>
      </trkpt>
      <trkpt lat="44.2351" lon="1.35938">
        <ele>225.09</ele>
        <time>2023-03-22T15:05:27Z</time>
      </trkpt>
      <trkpt lat="44.2351" lon="1.35938">
        <ele>230.37</ele>
        <time>2023-03-22T15:05:28Z</time>
      </trkpt>
      <trkpt lat="44.2351" lon="1.35938">
        <ele>227.97</ele>
        <time>2023-03-22T15:05:29Z</time>
      </trkpt>
      <trkpt lat="44.23512" lon="1.3594">
        <ele>227.01</ele>
        <time>2023-03-22T15:05:50Z</time>
      </trkpt>
      <trkpt lat="44.23511" lon="1.35942">
        <ele>227.01</ele>
        <time>2023-03-22T15:06:12Z</time>
      </trkpt>
      <trkpt lat="44.2351" lon="1.35941">
        <ele>227.01</ele>
        <time>2023-03-22T15:06:46Z</time>
      </trkpt>
      <trkpt lat="44.23509" lon="1.35943">
        <ele>226.53</ele>
        <time>2023-03-22T15:07:12Z</time>
      </trkpt>
      <trkpt lat="44.2351" lon="1.35944">
        <ele>227.49</ele>
        <time>2023-03-22T15:07:41Z</time>
      </trkpt>
      <trkpt lat="44.23512" lon="1.35945">
        <ele>227.49</ele>
        <time>2023-03-22T15:08:12Z</time>
      </trkpt>
      <trkpt lat="44.23508" lon="1.35945">
        <ele>227.49</ele>
        <time>2023-03-22T15:08:45Z</time>
      </trkpt>
      <trkpt lat="44.23507" lon="1.35944">
        <ele>227.49</ele>
        <time>2023-03-22T15:09:27Z</time>
      </trkpt>
      <trkpt lat="44.23508" lon="1.35948">
        <ele>227.49</ele>
        <time>2023-03-22T15:10:07Z</time>
      </trkpt>
      <trkpt lat="44.23507" lon="1.35947">
        <ele>227.49</ele>
        <time>2023-03-22T15:10:34Z</time>
      </trkpt>
      <trkpt lat="44.23509" lon="1.3594">
        <ele>227.49</ele>
        <time>2023-03-22T15:11:08Z</time>
      </trkpt>
      <trkpt lat="44.23511" lon="1.35943">
        <ele>227.49</ele>
        <time>2023-03-22T15:11:43Z</time>
      </trkpt>
      <trkpt lat="44.23511" lon="1.35942">
        <ele>227.97</ele>
        <time>2023-03-22T15:12:18Z</time>
      </trkpt>
      <trkpt lat="44.23511" lon="1.35941">
        <ele>227.97</ele>
        <time>2023-03-22T15:12:20Z</time>
      </trkpt>
      <trkpt lat="44.23511" lon="1.3594">
        <ele>227.97</ele>
        <time>2023-03-22T15:12:27Z</time>
      </trkpt>
      <trkpt lat="44.23513" lon="1.35937">
        <ele>227.49</ele>
        <time>2023-03-22T15:12:42Z</time>
      </trkpt>
      <trkpt lat="44.23515" lon="1.35938">
        <ele>228.45</ele>
        <time>2023-03-22T15:12:59Z</time>
      </trkpt>
      <trkpt lat="44.23516" lon="1.35929">
        <ele>228.45</ele>
        <time>2023-03-22T15:13:07Z</time>
      </trkpt>
      <trkpt lat="44.23517" lon="1.35927">
        <ele>228.45</ele>
        <time>2023-03-22T15:13:08Z</time>
      </trkpt>
      <trkpt lat="44.23517" lon="1.35911">
        <ele>227.97</ele>
        <time>2023-03-22T15:13:20Z</time>
      </trkpt>
      <trkpt lat="44.23512" lon="1.3589">
        <ele>227.97</ele>
        <time>2023-03-22T15:13:35Z</time>
      </trkpt>
      <trkpt lat="44.23513" lon="1.35872">
        <ele>227.97</ele>
        <time>2023-03-22T15:13:50Z</time>
      </trkpt>
      <trkpt lat="44.23516" lon="1.35853">
        <ele>227.97</ele>
        <time>2023-03-22T15:14:05Z</time>
      </trkpt>
      <trkpt lat="44.23525" lon="1.35832">
        <ele>227.97</ele>
        <time>2023-03-22T15:14:21Z</time>
      </trkpt>
      <trkpt lat="44.23535" lon="1.35815">
        <ele>227.97</ele>
        <time>2023-03-22T15:14:36Z</time>
      </trkpt>
      <trkpt lat="44.23549" lon="1.35788">
        <ele>227.49</ele>
        <time>2023-03-22T15:14:55Z</time>
      </trkpt>
      <trkpt lat="44.23562" lon="1.35769">
        <ele>227.49</ele>
        <time>2023-03-22T15:15:13Z</time>
      </trkpt>
      <trkpt lat="44.23576" lon="1.35745">
        <ele>226.53</ele>
        <time>2023-03-22T15:15:30Z</time>
      </trkpt>
      <trkpt lat="44.23577" lon="1.35744">
        <ele>226.53</ele>
        <time>2023-03-22T15:15:31Z</time>
      </trkpt>
      <trkpt lat="44.23579" lon="1.35741">
        <ele>226.53</ele>
        <time>2023-03-22T15:15:33Z</time>
      </trkpt>
      <trkpt lat="44.23585" lon="1.35717">
        <ele>225.09</ele>
        <time>2023-03-22T15:15:48Z</time>
      </trkpt>
      <trkpt lat="44.23589" lon="1.35691">
        <ele>225.09</ele>
        <time>2023-03-22T15:16:03Z</time>
      </trkpt>
      <trkpt lat="44.23593" lon="1.35671">
        <ele>224.12</ele>
        <time>2023-03-22T15:16:19Z</time>
      </trkpt>
      <trkpt lat="44.23594" lon="1.35668">
        <ele>223.64</ele>
        <time>2023-03-22T15:16:21Z</time>
      </trkpt>
      <trkpt lat="44.23597" lon="1.35638">
        <ele>223.64</ele>
        <time>2023-03-22T15:16:36Z</time>
      </trkpt>
      <trkpt lat="44.23598" lon="1.35623">
        <ele>224.61</ele>
        <time>2023-03-22T15:16:46Z</time>
      </trkpt>
      <trkpt lat="44.236" lon="1.35618">
        <ele>225.09</ele>
        <time>2023-03-22T15:16:50Z</time>
      </trkpt>
      <trkpt lat="44.23604" lon="1.35604">
        <ele>225.57</ele>
        <time>2023-03-22T15:17:00Z</time>
      </trkpt>
      <trkpt lat="44.23604" lon="1.35602">
        <ele>225.57</ele>
        <time>2023-03-22T15:17:01Z</time>
      </trkpt>
      <trkpt lat="44.23605" lon="1.356">
        <ele>226.05</ele>
        <time>2023-03-22T15:17:02Z</time>
      </trkpt>
      <trkpt lat="44.23605" lon="1.35598">
        <ele>226.05</ele>
        <time>2023-03-22T15:17:03Z</time>
      </trkpt>
      <trkpt lat="44.23609" lon="1.35586">
        <ele>226.05</ele>
        <time>2023-03-22T15:17:13Z</time>
      </trkpt>
      <trkpt lat="44.2361" lon="1.35584">
        <ele>226.53</ele>
        <time>2023-03-22T15:17:14Z</time>
      </trkpt>
      <trkpt lat="44.2361" lon="1.35582">
        <ele>226.53</ele>
        <time>2023-03-22T15:17:15Z</time>
      </trkpt>
      <trkpt lat="44.23611" lon="1.35576">
        <ele>226.53</ele>
        <time>2023-03-22T15:17:19Z</time>
      </trkpt>
      <trkpt lat="44.23612" lon="1.35574">
        <ele>226.53</ele>
        <time>2023-03-22T15:17:20Z</time>
      </trkpt>
      <trkpt lat="44.23615" lon="1.35565">
        <ele>226.53</ele>
        <time>2023-03-22T15:17:27Z</time>
      </trkpt>
      <trkpt lat="44.23617" lon="1.35561">
        <ele>226.53</ele>
        <time>2023-03-22T15:17:31Z</time>
      </trkpt>
      <trkpt lat="44.23617" lon="1.35558">
        <ele>226.53</ele>
        <time>2023-03-22T15:17:32Z</time>
      </trkpt>
      <trkpt lat="44.23618" lon="1.35556">
        <ele>226.53</ele>
        <time>2023-03-22T15:17:33Z</time>
      </trkpt>
      <trkpt lat="44.23619" lon="1.35553">
        <ele>227.01</ele>
        <time>2023-03-22T15:17:36Z</time>
      </trkpt>
      <trkpt lat="44.2362" lon="1.35552">
        <ele>227.01</ele>
        <time>2023-03-22T15:17:37Z</time>
      </trkpt>
      <trkpt lat="44.2362" lon="1.35549">
        <ele>227.01</ele>
        <time>2023-03-22T15:17:38Z</time>
      </trkpt>
      <trkpt lat="44.23621" lon="1.35547">
        <ele>227.01</ele>
        <time>2023-03-22T15:17:39Z</time>
      </trkpt>
      <trkpt lat="44.23624" lon="1.35534">
        <ele>227.01</ele>
        <time>2023-03-22T15:17:50Z</time>
      </trkpt>
      <trkpt lat="44.23626" lon="1.35529">
        <ele>227.01</ele>
        <time>2023-03-22T15:17:54Z</time>
      </trkpt>
      <trkpt lat="44.23628" lon="1.35523">
        <ele>227.01</ele>
        <time>2023-03-22T15:17:59Z</time>
      </trkpt>
      <trkpt lat="44.2363" lon="1.3552">
        <ele>227.01</ele>
        <time>2023-03-22T15:18:03Z</time>
      </trkpt>
      <trkpt lat="44.23632" lon="1.35514">
        <ele>227.01</ele>
        <time>2023-03-22T15:18:15Z</time>
      </trkpt>
      <trkpt lat="44.23635" lon="1.35515">
        <ele>226.53</ele>
        <time>2023-03-22T15:18:37Z</time>
      </trkpt>
      <trkpt lat="44.23635" lon="1.35516">
        <ele>227.97</ele>
        <time>2023-03-22T15:18:42Z</time>
      </trkpt>
      <trkpt lat="44.23635" lon="1.35516">
        <ele>226.53</ele>
        <time>2023-03-22T15:18:44Z</time>
      </trkpt>
      <trkpt lat="44.23636" lon="1.35513">
        <ele>226.53</ele>
        <time>2023-03-22T15:19:11Z</time>
      </trkpt>
      <trkpt lat="44.23638" lon="1.35514">
        <ele>226.53</ele>
        <time>2023-03-22T15:19:14Z</time>
      </trkpt>
      <trkpt lat="44.23639" lon="1.35516">
        <ele>226.53</ele>
        <time>2023-03-22T15:19:16Z</time>
      </trkpt>
      <trkpt lat="44.2364" lon="1.35517">
        <ele>226.53</ele>
        <time>2023-03-22T15:19:17Z</time>
      </trkpt>
      <trkpt lat="44.23654" lon="1.35535">
        <ele>226.53</ele>
        <time>2023-03-22T15:19:34Z</time>
      </trkpt>
      <trkpt lat="44.23655" lon="1.35537">
        <ele>226.53</ele>
        <time>2023-03-22T15:19:36Z</time>
      </trkpt>
      <trkpt lat="44.23658" lon="1.3554">
        <ele>226.53</ele>
        <time>2023-03-22T15:19:39Z</time>
      </trkpt>
      <trkpt lat="44.23659" lon="1.35542">
        <ele>226.53</ele>
        <time>2023-03-22T15:19:40Z</time>
      </trkpt>
      <trkpt lat="44.2367" lon="1.35556">
        <ele>226.53</ele>
        <time>2023-03-22T15:19:50Z</time>
      </trkpt>
      <trkpt lat="44.23676" lon="1.35565">
        <ele>226.53</ele>
        <time>2023-03-22T15:19:59Z</time>
      </trkpt>
      <trkpt lat="44.23679" lon="1.35573">
        <ele>226.05</ele>
        <time>2023-03-22T15:20:08Z</time>
      </trkpt>
      <trkpt lat="44.23679" lon="1.35575">
        <ele>226.05</ele>
        <time>2023-03-22T15:20:12Z</time>
      </trkpt>
      <trkpt lat="44.2368" lon="1.35576">
        <ele>225.57</ele>
        <time>2023-03-22T15:20:13Z</time>
      </trkpt>
      <trkpt lat="44.23685" lon="1.35589">
        <ele>225.57</ele>
        <time>2023-03-22T15:20:22Z</time>
      </trkpt>
      <trkpt lat="44.23688" lon="1.35599">
        <ele>225.09</ele>
        <time>2023-03-22T15:20:29Z</time>
      </trkpt>
      <trkpt lat="44.23688" lon="1.35602">
        <ele>225.09</ele>
        <time>2023-03-22T15:20:30Z</time>
      </trkpt>
      <trkpt lat="44.23691" lon="1.35609">
        <ele>225.09</ele>
        <time>2023-03-22T15:20:37Z</time>
      </trkpt>
      <trkpt lat="44.23692" lon="1.35611">
        <ele>225.09</ele>
        <time>2023-03-22T15:20:38Z</time>
      </trkpt>
      <trkpt lat="44.23693" lon="1.35613">
        <ele>225.09</ele>
        <time>2023-03-22T15:20:39Z</time>
      </trkpt>
      <trkpt lat="44.23694" lon="1.35616">
        <ele>225.09</ele>
        <time>2023-03-22T15:20:40Z</time>
      </trkpt>
      <trkpt lat="44.23695" lon="1.35618">
        <ele>225.09</ele>
        <time>2023-03-22T15:20:41Z</time>
      </trkpt>
      <trkpt lat="44.23703" lon="1.35632">
        <ele>225.09</ele>
        <time>2023-03-22T15:20:52Z</time>
      </trkpt>
      <trkpt lat="44.2371" lon="1.35643">
        <ele>225.09</ele>
        <time>2023-03-22T15:21:02Z</time>
      </trkpt>
      <trkpt lat="44.23721" lon="1.35659">
        <ele>225.09</ele>
        <time>2023-03-22T15:21:13Z</time>
      </trkpt>
      <trkpt lat="44.23731" lon="1.35672">
        <ele>225.09</ele>
        <time>2023-03-22T15:21:23Z</time>
      </trkpt>
      <trkpt lat="44.23741" lon="1.35685">
        <ele>225.09</ele>
        <time>2023-03-22T15:21:32Z</time>
      </trkpt>
      <trkpt lat="44.23741" lon="1.35687">
        <ele>225.09</ele>
        <time>2023-03-22T15:21:34Z</time>
      </trkpt>
      <trkpt lat="44.23743" lon="1.35688">
        <ele>225.09</ele>
        <time>2023-03-22T15:21:49Z</time>
      </trkpt>
      <trkpt lat="44.23745" lon="1.3569">
        <ele>225.09</ele>
        <time>2023-03-22T15:21:51Z</time>
      </trkpt>
      <trkpt lat="44.23746" lon="1.35691">
        <ele>225.09</ele>
        <time>2023-03-22T15:21:52Z</time>
      </trkpt>
      <trkpt lat="44.23754" lon="1.35705">
        <ele>225.09</ele>
        <time>2023-03-22T15:22:02Z</time>
      </trkpt>
      <trkpt lat="44.23764" lon="1.35716">
        <ele>225.09</ele>
        <time>2023-03-22T15:22:12Z</time>
      </trkpt>
      <trkpt lat="44.23773" lon="1.35725">
        <ele>225.09</ele>
        <time>2023-03-22T15:22:22Z</time>
      </trkpt>
      <trkpt lat="44.23791" lon="1.35743">
        <ele>224.61</ele>
        <time>2023-03-22T15:22:37Z</time>
      </trkpt>
      <trkpt lat="44.23797" lon="1.35752">
        <ele>224.61</ele>
        <time>2023-03-22T15:22:46Z</time>
      </trkpt>
      <trkpt lat="44.23805" lon="1.35766">
        <ele>224.61</ele>
        <time>2023-03-22T15:22:56Z</time>
      </trkpt>
      <trkpt lat="44.23813" lon="1.35786">
        <ele>224.12</ele>
        <time>2023-03-22T15:23:05Z</time>
      </trkpt>
      <trkpt lat="44.23819" lon="1.35801">
        <ele>223.16</ele>
        <time>2023-03-22T15:23:15Z</time>
      </trkpt>
      <trkpt lat="44.23824" lon="1.35817">
        <ele>222.2</ele>
        <time>2023-03-22T15:23:26Z</time>
      </trkpt>
      <trkpt lat="44.23835" lon="1.35834">
        <ele>222.2</ele>
        <time>2023-03-22T15:23:36Z</time>
      </trkpt>
      <trkpt lat="44.23848" lon="1.35852">
        <ele>221.72</ele>
        <time>2023-03-22T15:23:48Z</time>
      </trkpt>
      <trkpt lat="44.23853" lon="1.35858">
        <ele>221.72</ele>
        <time>2023-03-22T15:23:57Z</time>
      </trkpt>
      <trkpt lat="44.23865" lon="1.3588">
        <ele>221.72</ele>
        <time>2023-03-22T15:24:12Z</time>
      </trkpt>
      <trkpt lat="44.23874" lon="1.35894">
        <ele>221.24</ele>
        <time>2023-03-22T15:24:22Z</time>
      </trkpt>
      <trkpt lat="44.23883" lon="1.35911">
        <ele>222.68</ele>
        <time>2023-03-22T15:24:35Z</time>
      </trkpt>
      <trkpt lat="44.23896" lon="1.35933">
        <ele>223.16</ele>
        <time>2023-03-22T15:24:53Z</time>
      </trkpt>
      <trkpt lat="44.23912" lon="1.35945">
        <ele>223.64</ele>
        <time>2023-03-22T15:25:10Z</time>
      </trkpt>
      <trkpt lat="44.23913" lon="1.35946">
        <ele>223.64</ele>
        <time>2023-03-22T15:25:11Z</time>
      </trkpt>
      <trkpt lat="44.23915" lon="1.35948">
        <ele>223.64</ele>
        <time>2023-03-22T15:25:12Z</time>
      </trkpt>
      <trkpt lat="44.23917" lon="1.35953">
        <ele>223.64</ele>
        <time>2023-03-22T15:25:18Z</time>
      </trkpt>
      <trkpt lat="44.23923" lon="1.35957">
        <ele>223.64</ele>
        <time>2023-03-22T15:25:21Z</time>
      </trkpt>
      <trkpt lat="44.23928" lon="1.35964">
        <ele>222.2</ele>
        <time>2023-03-22T15:25:26Z</time>
      </trkpt>
      <trkpt lat="44.23941" lon="1.35987">
        <ele>221.72</ele>
        <time>2023-03-22T15:25:44Z</time>
      </trkpt>
      <trkpt lat="44.23953" lon="1.36009">
        <ele>221.24</ele>
        <time>2023-03-22T15:26:01Z</time>
      </trkpt>
      <trkpt lat="44.23953" lon="1.3601">
        <ele>221.24</ele>
        <time>2023-03-22T15:26:02Z</time>
      </trkpt>
      <trkpt lat="44.23954" lon="1.36011">
        <ele>221.24</ele>
        <time>2023-03-22T15:26:03Z</time>
      </trkpt>
      <trkpt lat="44.23955" lon="1.36013">
        <ele>221.24</ele>
        <time>2023-03-22T15:26:04Z</time>
      </trkpt>
      <trkpt lat="44.23956" lon="1.36015">
        <ele>220.28</ele>
        <time>2023-03-22T15:26:05Z</time>
      </trkpt>
      <trkpt lat="44.23957" lon="1.36016">
        <ele>220.28</ele>
        <time>2023-03-22T15:26:06Z</time>
      </trkpt>
      <trkpt lat="44.23957" lon="1.36018">
        <ele>220.28</ele>
        <time>2023-03-22T15:26:07Z</time>
      </trkpt>
      <trkpt lat="44.23958" lon="1.36019">
        <ele>220.28</ele>
        <time>2023-03-22T15:26:08Z</time>
      </trkpt>
      <trkpt lat="44.23966" lon="1.36031">
        <ele>220.28</ele>
        <time>2023-03-22T15:26:17Z</time>
      </trkpt>
      <trkpt lat="44.23967" lon="1.36032">
        <ele>220.28</ele>
        <time>2023-03-22T15:26:18Z</time>
      </trkpt>
      <trkpt lat="44.23967" lon="1.36034">
        <ele>220.28</ele>
        <time>2023-03-22T15:26:19Z</time>
      </trkpt>
      <trkpt lat="44.23985" lon="1.36057">
        <ele>219.8</ele>
        <time>2023-03-22T15:26:37Z</time>
      </trkpt>
      <trkpt lat="44.2399" lon="1.36063">
        <ele>219.32</ele>
        <time>2023-03-22T15:26:42Z</time>
      </trkpt>
      <trkpt lat="44.2401" lon="1.36073">
        <ele>220.76</ele>
        <time>2023-03-22T15:27:00Z</time>
      </trkpt>
      <trkpt lat="44.24014" lon="1.36075">
        <ele>219.32</ele>
        <time>2023-03-22T15:27:02Z</time>
      </trkpt>
      <trkpt lat="44.24023" lon="1.3608">
        <ele>218.84</ele>
        <time>2023-03-22T15:27:12Z</time>
      </trkpt>
      <trkpt lat="44.24047" lon="1.36099">
        <ele>218.36</ele>
        <time>2023-03-22T15:27:32Z</time>
      </trkpt>
      <trkpt lat="44.24058" lon="1.36112">
        <ele>218.36</ele>
        <time>2023-03-22T15:27:42Z</time>
      </trkpt>
      <trkpt lat="44.24069" lon="1.36123">
        <ele>218.36</ele>
        <time>2023-03-22T15:27:55Z</time>
      </trkpt>
      <trkpt lat="44.2408" lon="1.36129">
        <ele>218.36</ele>
        <time>2023-03-22T15:28:05Z</time>
      </trkpt>
      <trkpt lat="44.24082" lon="1.3613">
        <ele>218.36</ele>
        <time>2023-03-22T15:28:07Z</time>
      </trkpt>
      <trkpt lat="44.24084" lon="1.3613">
        <ele>218.36</ele>
        <time>2023-03-22T15:28:08Z</time>
      </trkpt>
      <trkpt lat="44.24086" lon="1.3613">
        <ele>218.36</ele>
        <time>2023-03-22T15:28:09Z</time>
      </trkpt>
      <trkpt lat="44.24089" lon="1.3613">
        <ele>218.36</ele>
        <time>2023-03-22T15:28:10Z</time>
      </trkpt>
      <trkpt lat="44.24092" lon="1.3613">
        <ele>218.36</ele>
        <time>2023-03-22T15:28:11Z</time>
      </trkpt>
      <trkpt lat="44.24095" lon="1.3613">
        <ele>217.88</ele>
        <time>2023-03-22T15:28:12Z</time>
      </trkpt>
      <trkpt lat="44.24097" lon="1.36131">
        <ele>217.88</ele>
        <time>2023-03-22T15:28:13Z</time>
      </trkpt>
      <trkpt lat="44.24099" lon="1.36131">
        <ele>218.36</ele>
        <time>2023-03-22T15:28:14Z</time>
      </trkpt>
      <trkpt lat="44.241" lon="1.36132">
        <ele>217.88</ele>
        <time>2023-03-22T15:28:15Z</time>
      </trkpt>
      <trkpt lat="44.24112" lon="1.36131">
        <ele>217.88</ele>
        <time>2023-03-22T15:28:26Z</time>
      </trkpt>
      <trkpt lat="44.24125" lon="1.3613">
        <ele>217.88</ele>
        <time>2023-03-22T15:28:36Z</time>
      </trkpt>
      <trkpt lat="44.24133" lon="1.3613">
        <ele>217.88</ele>
        <time>2023-03-22T15:28:44Z</time>
      </trkpt>
      <trkpt lat="44.24135" lon="1.3613">
        <ele>217.88</ele>
        <time>2023-03-22T15:28:45Z</time>
      </trkpt>
      <trkpt lat="44.24151" lon="1.36129">
        <ele>219.32</ele>
        <time>2023-03-22T15:28:55Z</time>
      </trkpt>
      <trkpt lat="44.24163" lon="1.36127">
        <ele>219.32</ele>
        <time>2023-03-22T15:29:05Z</time>
      </trkpt>
      <trkpt lat="44.24165" lon="1.36127">
        <ele>219.32</ele>
        <time>2023-03-22T15:29:06Z</time>
      </trkpt>
      <trkpt lat="44.24177" lon="1.36126">
        <ele>219.8</ele>
        <time>2023-03-22T15:29:16Z</time>
      </trkpt>
      <trkpt lat="44.2419" lon="1.36124">
        <ele>220.28</ele>
        <time>2023-03-22T15:29:26Z</time>
      </trkpt>
      <trkpt lat="44.24194" lon="1.36123">
        <ele>219.8</ele>
        <time>2023-03-22T15:29:31Z</time>
      </trkpt>
      <trkpt lat="44.24196" lon="1.36122">
        <ele>219.8</ele>
        <time>2023-03-22T15:29:32Z</time>
      </trkpt>
      <trkpt lat="44.24204" lon="1.36118">
        <ele>220.76</ele>
        <time>2023-03-22T15:29:40Z</time>
      </trkpt>
      <trkpt lat="44.2421" lon="1.36117">
        <ele>221.72</ele>
        <time>2023-03-22T15:29:49Z</time>
      </trkpt>
      <trkpt lat="44.24212" lon="1.36115">
        <ele>222.2</ele>
        <time>2023-03-22T15:29:51Z</time>
      </trkpt>
      <trkpt lat="44.24218" lon="1.36109">
        <ele>222.2</ele>
        <time>2023-03-22T15:29:59Z</time>
      </trkpt>
      <trkpt lat="44.24222" lon="1.36108">
        <ele>222.2</ele>
        <time>2023-03-22T15:30:04Z</time>
      </trkpt>
      <trkpt lat="44.24229" lon="1.36107">
        <ele>223.16</ele>
        <time>2023-03-22T15:30:10Z</time>
      </trkpt>
      <trkpt lat="44.24233" lon="1.36106">
        <ele>223.64</ele>
        <time>2023-03-22T15:30:14Z</time>
      </trkpt>
      <trkpt lat="44.24238" lon="1.36103">
        <ele>224.61</ele>
        <time>2023-03-22T15:30:22Z</time>
      </trkpt>
      <trkpt lat="44.24247" lon="1.36102">
        <ele>225.09</ele>
        <time>2023-03-22T15:30:32Z</time>
      </trkpt>
      <trkpt lat="44.24249" lon="1.36101">
        <ele>225.57</ele>
        <time>2023-03-22T15:30:34Z</time>
      </trkpt>
      <trkpt lat="44.24251" lon="1.36105">
        <ele>225.57</ele>
        <time>2023-03-22T15:30:37Z</time>
      </trkpt>
      <trkpt lat="44.24254" lon="1.36108">
        <ele>226.05</ele>
        <time>2023-03-22T15:30:41Z</time>
      </trkpt>
      <trkpt lat="44.24261" lon="1.36111">
        <ele>226.53</ele>
        <time>2023-03-22T15:30:49Z</time>
      </trkpt>
      <trkpt lat="44.24264" lon="1.3611">
        <ele>226.53</ele>
        <time>2023-03-22T15:30:52Z</time>
      </trkpt>
      <trkpt lat="44.24268" lon="1.36107">
        <ele>227.01</ele>
        <time>2023-03-22T15:30:57Z</time>
      </trkpt>
      <trkpt lat="44.2427" lon="1.36104">
        <ele>227.01</ele>
        <time>2023-03-22T15:31:00Z</time>
      </trkpt>
      <trkpt lat="44.24276" lon="1.36093">
        <ele>227.49</ele>
        <time>2023-03-22T15:31:10Z</time>
      </trkpt>
      <trkpt lat="44.24277" lon="1.36093">
        <ele>227.49</ele>
        <time>2023-03-22T15:31:11Z</time>
      </trkpt>
      <trkpt lat="44.24282" lon="1.3609">
        <ele>227.97</ele>
        <time>2023-03-22T15:31:17Z</time>
      </trkpt>
      <trkpt lat="44.24285" lon="1.36082">
        <ele>227.97</ele>
        <time>2023-03-22T15:31:23Z</time>
      </trkpt>
      <trkpt lat="44.2429" lon="1.36077">
        <ele>228.45</ele>
        <time>2023-03-22T15:31:30Z</time>
      </trkpt>
      <trkpt lat="44.24295" lon="1.36072">
        <ele>228.45</ele>
        <time>2023-03-22T15:31:35Z</time>
      </trkpt>
      <trkpt lat="44.24298" lon="1.36067">
        <ele>228.45</ele>
        <time>2023-03-22T15:31:40Z</time>
      </trkpt>
      <trkpt lat="44.24305" lon="1.36055">
        <ele>228.93</ele>
        <time>2023-03-22T15:31:49Z</time>
      </trkpt>
      <trkpt lat="44.24311" lon="1.36047">
        <ele>228.93</ele>
        <time>2023-03-22T15:31:58Z</time>
      </trkpt>
      <trkpt lat="44.24316" lon="1.36044">
        <ele>228.93</ele>
        <time>2023-03-22T15:32:03Z</time>
      </trkpt>
      <trkpt lat="44.2432" lon="1.36042">
        <ele>229.41</ele>
        <time>2023-03-22T15:32:07Z</time>
      </trkpt>
      <trkpt lat="44.24323" lon="1.36043">
        <ele>229.41</ele>
        <time>2023-03-22T15:32:11Z</time>
      </trkpt>
      <trkpt lat="44.24327" lon="1.36043">
        <ele>229.41</ele>
        <time>2023-03-22T15:32:15Z</time>
      </trkpt>
      <trkpt lat="44.24335" lon="1.36031">
        <ele>230.37</ele>
        <time>2023-03-22T15:32:25Z</time>
      </trkpt>
      <trkpt lat="44.24338" lon="1.36028">
        <ele>230.37</ele>
        <time>2023-03-22T15:32:29Z</time>
      </trkpt>
      <trkpt lat="44.2435" lon="1.36015">
        <ele>230.85</ele>
        <time>2023-03-22T15:32:44Z</time>
      </trkpt>
      <trkpt lat="44.24358" lon="1.36006">
        <ele>231.33</ele>
        <time>2023-03-22T15:32:55Z</time>
      </trkpt>
      <trkpt lat="44.24368" lon="1.35996">
        <ele>231.33</ele>
        <time>2023-03-22T15:33:06Z</time>
      </trkpt>
      <trkpt lat="44.24374" lon="1.35989">
        <ele>231.81</ele>
        <time>2023-03-22T15:33:16Z</time>
      </trkpt>
      <trkpt lat="44.2438" lon="1.35983">
        <ele>231.81</ele>
        <time>2023-03-22T15:33:24Z</time>
      </trkpt>
      <trkpt lat="44.24383" lon="1.35979">
        <ele>231.81</ele>
        <time>2023-03-22T15:33:26Z</time>
      </trkpt>
      <trkpt lat="44.24384" lon="1.35977">
        <ele>231.81</ele>
        <time>2023-03-22T15:33:27Z</time>
      </trkpt>
      <trkpt lat="44.24386" lon="1.35976">
        <ele>231.81</ele>
        <time>2023-03-22T15:33:30Z</time>
      </trkpt>
      <trkpt lat="44.24387" lon="1.35973">
        <ele>231.81</ele>
        <time>2023-03-22T15:33:31Z</time>
      </trkpt>
      <trkpt lat="44.24389" lon="1.35972">
        <ele>231.81</ele>
        <time>2023-03-22T15:33:32Z</time>
      </trkpt>
      <trkpt lat="44.2439" lon="1.3597">
        <ele>231.81</ele>
        <time>2023-03-22T15:33:35Z</time>
      </trkpt>
      <trkpt lat="44.24392" lon="1.35968">
        <ele>231.81</ele>
        <time>2023-03-22T15:33:36Z</time>
      </trkpt>
      <trkpt lat="44.244" lon="1.3596">
        <ele>232.78</ele>
        <time>2023-03-22T15:33:46Z</time>
      </trkpt>
      <trkpt lat="44.2441" lon="1.3595">
        <ele>232.3</ele>
        <time>2023-03-22T15:33:57Z</time>
      </trkpt>
      <trkpt lat="44.24415" lon="1.35944">
        <ele>232.3</ele>
        <time>2023-03-22T15:34:05Z</time>
      </trkpt>
      <trkpt lat="44.24417" lon="1.35942">
        <ele>232.3</ele>
        <time>2023-03-22T15:34:06Z</time>
      </trkpt>
      <trkpt lat="44.24418" lon="1.35941">
        <ele>232.3</ele>
        <time>2023-03-22T15:34:07Z</time>
      </trkpt>
      <trkpt lat="44.2442" lon="1.3594">
        <ele>232.3</ele>
        <time>2023-03-22T15:34:11Z</time>
      </trkpt>
      <trkpt lat="44.24421" lon="1.35938">
        <ele>232.3</ele>
        <time>2023-03-22T15:34:12Z</time>
      </trkpt>
      <trkpt lat="44.24422" lon="1.35936">
        <ele>232.3</ele>
        <time>2023-03-22T15:34:13Z</time>
      </trkpt>
      <trkpt lat="44.24423" lon="1.35934">
        <ele>230.85</ele>
        <time>2023-03-22T15:34:17Z</time>
      </trkpt>
      <trkpt lat="44.24425" lon="1.35931">
        <ele>230.85</ele>
        <time>2023-03-22T15:34:18Z</time>
      </trkpt>
      <trkpt lat="44.24429" lon="1.35923">
        <ele>230.85</ele>
        <time>2023-03-22T15:34:25Z</time>
      </trkpt>
      <trkpt lat="44.2443" lon="1.35921">
        <ele>230.85</ele>
        <time>2023-03-22T15:34:35Z</time>
      </trkpt>
      <trkpt lat="44.24431" lon="1.3592">
        <ele>230.85</ele>
        <time>2023-03-22T15:34:53Z</time>
      </trkpt>
      <trkpt lat="44.24432" lon="1.35918">
        <ele>230.37</ele>
        <time>2023-03-22T15:35:05Z</time>
      </trkpt>
      <trkpt lat="44.24432" lon="1.35919">
        <ele>230.37</ele>
        <time>2023-03-22T15:35:25Z</time>
      </trkpt>
      <trkpt lat="44.24432" lon="1.35916">
        <ele>230.37</ele>
        <time>2023-03-22T15:35:35Z</time>
      </trkpt>
      <trkpt lat="44.24433" lon="1.35915">
        <ele>230.37</ele>
        <time>2023-03-22T15:35:36Z</time>
      </trkpt>
      <trkpt lat="44.24435" lon="1.35911">
        <ele>230.37</ele>
        <time>2023-03-22T15:35:40Z</time>
      </trkpt>
      <trkpt lat="44.24436" lon="1.35908">
        <ele>230.37</ele>
        <time>2023-03-22T15:35:41Z</time>
      </trkpt>
      <trkpt lat="44.24437" lon="1.35906">
        <ele>230.37</ele>
        <time>2023-03-22T15:35:42Z</time>
      </trkpt>
      <trkpt lat="44.24439" lon="1.35901">
        <ele>230.37</ele>
        <time>2023-03-22T15:35:45Z</time>
      </trkpt>
      <trkpt lat="44.2444" lon="1.359">
        <ele>230.37</ele>
        <time>2023-03-22T15:35:46Z</time>
      </trkpt>
      <trkpt lat="44.24441" lon="1.35896">
        <ele>229.89</ele>
        <time>2023-03-22T15:35:49Z</time>
      </trkpt>
      <trkpt lat="44.24441" lon="1.35894">
        <ele>229.89</ele>
        <time>2023-03-22T15:35:50Z</time>
      </trkpt>
      <trkpt lat="44.24443" lon="1.35887">
        <ele>229.89</ele>
        <time>2023-03-22T15:35:55Z</time>
      </trkpt>
      <trkpt lat="44.24443" lon="1.35885">
        <ele>229.89</ele>
        <time>2023-03-22T15:35:56Z</time>
      </trkpt>
      <trkpt lat="44.24444" lon="1.35874">
        <ele>229.89</ele>
        <time>2023-03-22T15:36:06Z</time>
      </trkpt>
      <trkpt lat="44.24446" lon="1.35855">
        <ele>229.41</ele>
        <time>2023-03-22T15:36:18Z</time>
      </trkpt>
      <trkpt lat="44.24446" lon="1.35853">
        <ele>228.93</ele>
        <time>2023-03-22T15:36:19Z</time>
      </trkpt>
      <trkpt lat="44.24447" lon="1.35843">
        <ele>227.97</ele>
        <time>2023-03-22T15:36:34Z</time>
      </trkpt>
      <trkpt lat="44.24449" lon="1.35844">
        <ele>228.45</ele>
        <time>2023-03-22T15:36:49Z</time>
      </trkpt>
      <trkpt lat="44.24449" lon="1.35843">
        <ele>228.45</ele>
        <time>2023-03-22T15:36:50Z</time>
      </trkpt>
      <trkpt lat="44.24449" lon="1.35842">
        <ele>228.45</ele>
        <time>2023-03-22T15:36:51Z</time>
      </trkpt>
      <trkpt lat="44.24448" lon="1.35838">
        <ele>228.45</ele>
        <time>2023-03-22T15:36:53Z</time>
      </trkpt>
      <trkpt lat="44.24448" lon="1.35837">
        <ele>228.45</ele>
        <time>2023-03-22T15:36:54Z</time>
      </trkpt>
      <trkpt lat="44.24448" lon="1.35835">
        <ele>228.45</ele>
        <time>2023-03-22T15:36:55Z</time>
      </trkpt>
      <trkpt lat="44.24448" lon="1.35833">
        <ele>228.45</ele>
        <time>2023-03-22T15:36:56Z</time>
      </trkpt>
      <trkpt lat="44.24447" lon="1.35832">
        <ele>228.45</ele>
        <time>2023-03-22T15:36:57Z</time>
      </trkpt>
      <trkpt lat="44.24447" lon="1.35831">
        <ele>228.45</ele>
        <time>2023-03-22T15:37:07Z</time>
      </trkpt>
      <trkpt lat="44.24447" lon="1.35833">
        <ele>228.45</ele>
        <time>2023-03-22T15:37:08Z</time>
      </trkpt>
      <trkpt lat="44.24448" lon="1.35835">
        <ele>228.45</ele>
        <time>2023-03-22T15:37:09Z</time>
      </trkpt>
      <trkpt lat="44.24449" lon="1.35836">
        <ele>228.45</ele>
        <time>2023-03-22T15:37:11Z</time>
      </trkpt>
      <trkpt lat="44.24449" lon="1.35836">
        <ele>228.45</ele>
        <time>2023-03-22T15:37:22Z</time>
      </trkpt>
      <trkpt lat="44.2445" lon="1.35835">
        <ele>228.45</ele>
        <time>2023-03-22T15:37:23Z</time>
      </trkpt>
      <trkpt lat="44.24452" lon="1.35833">
        <ele>227.97</ele>
        <time>2023-03-22T15:37:26Z</time>
      </trkpt>
      <trkpt lat="44.24459" lon="1.35829">
        <ele>227.01</ele>
        <time>2023-03-22T15:37:34Z</time>
      </trkpt>
      <trkpt lat="44.24461" lon="1.35828">
        <ele>227.01</ele>
        <time>2023-03-22T15:37:35Z</time>
      </trkpt>
      <trkpt lat="44.24468" lon="1.3582">
        <ele>226.05</ele>
        <time>2023-03-22T15:37:42Z</time>
      </trkpt>
      <trkpt lat="44.24468" lon="1.35818">
        <ele>225.57</ele>
        <time>2023-03-22T15:37:43Z</time>
      </trkpt>
      <trkpt lat="44.24474" lon="1.358">
        <ele>223.64</ele>
        <time>2023-03-22T15:37:57Z</time>
      </trkpt>
      <trkpt lat="44.24479" lon="1.35786">
        <ele>221.24</ele>
        <time>2023-03-22T15:38:06Z</time>
      </trkpt>
      <trkpt lat="44.24479" lon="1.35785">
        <ele>221.24</ele>
        <time>2023-03-22T15:38:07Z</time>
      </trkpt>
      <trkpt lat="44.24483" lon="1.35772">
        <ele>219.8</ele>
        <time>2023-03-22T15:38:16Z</time>
      </trkpt>
      <trkpt lat="44.2449" lon="1.35752">
        <ele>216.91</ele>
        <time>2023-03-22T15:38:30Z</time>
      </trkpt>
      <trkpt lat="44.24499" lon="1.35733">
        <ele>214.51</ele>
        <time>2023-03-22T15:38:46Z</time>
      </trkpt>
      <trkpt lat="44.24511" lon="1.35714">
        <ele>211.63</ele>
        <time>2023-03-22T15:39:01Z</time>
      </trkpt>
      <trkpt lat="44.24525" lon="1.35693">
        <ele>209.7</ele>
        <time>2023-03-22T15:39:16Z</time>
      </trkpt>
      <trkpt lat="44.24538" lon="1.35674">
        <ele>207.3</ele>
        <time>2023-03-22T15:39:31Z</time>
      </trkpt>
      <trkpt lat="44.24546" lon="1.35661">
        <ele>204.42</ele>
        <time>2023-03-22T15:39:44Z</time>
      </trkpt>
      <trkpt lat="44.24557" lon="1.35644">
        <ele>201.05</ele>
        <time>2023-03-22T15:39:59Z</time>
      </trkpt>
      <trkpt lat="44.24568" lon="1.3563">
        <ele>199.13</ele>
        <time>2023-03-22T15:40:12Z</time>
      </trkpt>
      <trkpt lat="44.24581" lon="1.35614">
        <ele>196.73</ele>
        <time>2023-03-22T15:40:26Z</time>
      </trkpt>
      <trkpt lat="44.24597" lon="1.35599">
        <ele>194.32</ele>
        <time>2023-03-22T15:40:42Z</time>
      </trkpt>
      <trkpt lat="44.24613" lon="1.35584">
        <ele>192.4</ele>
        <time>2023-03-22T15:40:58Z</time>
      </trkpt>
      <trkpt lat="44.24623" lon="1.35578">
        <ele>191.44</ele>
        <time>2023-03-22T15:41:08Z</time>
      </trkpt>
      <trkpt lat="44.24639" lon="1.3558">
        <ele>189.04</ele>
        <time>2023-03-22T15:41:23Z</time>
      </trkpt>
      <trkpt lat="44.24653" lon="1.35583">
        <ele>187.11</ele>
        <time>2023-03-22T15:41:36Z</time>
      </trkpt>
      <trkpt lat="44.2467" lon="1.35588">
        <ele>186.15</ele>
        <time>2023-03-22T15:41:52Z</time>
      </trkpt>
      <trkpt lat="44.24687" lon="1.35593">
        <ele>184.23</ele>
        <time>2023-03-22T15:42:09Z</time>
      </trkpt>
      <trkpt lat="44.24699" lon="1.35589">
        <ele>182.79</ele>
        <time>2023-03-22T15:42:22Z</time>
      </trkpt>
      <trkpt lat="44.24713" lon="1.3558">
        <ele>180.38</ele>
        <time>2023-03-22T15:42:38Z</time>
      </trkpt>
      <trkpt lat="44.24726" lon="1.35574">
        <ele>177.98</ele>
        <time>2023-03-22T15:42:53Z</time>
      </trkpt>
      <trkpt lat="44.24743" lon="1.35571">
        <ele>175.1</ele>
        <time>2023-03-22T15:43:08Z</time>
      </trkpt>
      <trkpt lat="44.24758" lon="1.35571">
        <ele>173.17</ele>
        <time>2023-03-22T15:43:21Z</time>
      </trkpt>
      <trkpt lat="44.24771" lon="1.35569">
        <ele>171.25</ele>
        <time>2023-03-22T15:43:34Z</time>
      </trkpt>
      <trkpt lat="44.24786" lon="1.3557">
        <ele>169.33</ele>
        <time>2023-03-22T15:43:50Z</time>
      </trkpt>
      <trkpt lat="44.248" lon="1.35567">
        <ele>166.45</ele>
        <time>2023-03-22T15:44:04Z</time>
      </trkpt>
      <trkpt lat="44.24815" lon="1.35565">
        <ele>164.04</ele>
        <time>2023-03-22T15:44:19Z</time>
      </trkpt>
      <trkpt lat="44.24823" lon="1.35561">
        <ele>163.08</ele>
        <time>2023-03-22T15:44:27Z</time>
      </trkpt>
      <trkpt lat="44.24837" lon="1.35554">
        <ele>159.72</ele>
        <time>2023-03-22T15:44:39Z</time>
      </trkpt>
      <trkpt lat="44.24853" lon="1.35548">
        <ele>156.83</ele>
        <time>2023-03-22T15:44:54Z</time>
      </trkpt>
      <trkpt lat="44.2487" lon="1.35541">
        <ele>153.47</ele>
        <time>2023-03-22T15:45:09Z</time>
      </trkpt>
      <trkpt lat="44.24888" lon="1.35535">
        <ele>150.58</ele>
        <time>2023-03-22T15:45:24Z</time>
      </trkpt>
      <trkpt lat="44.24904" lon="1.35529">
        <ele>147.7</ele>
        <time>2023-03-22T15:45:38Z</time>
      </trkpt>
      <trkpt lat="44.24922" lon="1.35521">
        <ele>144.82</ele>
        <time>2023-03-22T15:45:54Z</time>
      </trkpt>
      <trkpt lat="44.24941" lon="1.35514">
        <ele>142.41</ele>
        <time>2023-03-22T15:46:10Z</time>
      </trkpt>
      <trkpt lat="44.24963" lon="1.35507">
        <ele>140.01</ele>
        <time>2023-03-22T15:46:28Z</time>
      </trkpt>
      <trkpt lat="44.24984" lon="1.35503">
        <ele>137.61</ele>
        <time>2023-03-22T15:46:45Z</time>
      </trkpt>
      <trkpt lat="44.25004" lon="1.35499">
        <ele>136.64</ele>
        <time>2023-03-22T15:47:01Z</time>
      </trkpt>
      <trkpt lat="44.25022" lon="1.35495">
        <ele>135.68</ele>
        <time>2023-03-22T15:47:19Z</time>
      </trkpt>
      <trkpt lat="44.25024" lon="1.35487">
        <ele>135.68</ele>
        <time>2023-03-22T15:47:31Z</time>
      </trkpt>
      <trkpt lat="44.25025" lon="1.35486">
        <ele>135.68</ele>
        <time>2023-03-22T15:47:32Z</time>
      </trkpt>
      <trkpt lat="44.2504" lon="1.35472">
        <ele>135.2</ele>
        <time>2023-03-22T15:47:47Z</time>
      </trkpt>
      <trkpt lat="44.25061" lon="1.35459">
        <ele>134.72</ele>
        <time>2023-03-22T15:48:07Z</time>
      </trkpt>
      <trkpt lat="44.25062" lon="1.35459">
        <ele>134.72</ele>
        <time>2023-03-22T15:48:08Z</time>
      </trkpt>
      <trkpt lat="44.25068" lon="1.35464">
        <ele>134.72</ele>
        <time>2023-03-22T15:48:15Z</time>
      </trkpt>
      <trkpt lat="44.25076" lon="1.35471">
        <ele>134.24</ele>
        <time>2023-03-22T15:48:29Z</time>
      </trkpt>
      <trkpt lat="44.25095" lon="1.35485">
        <ele>133.76</ele>
        <time>2023-03-22T15:48:47Z</time>
      </trkpt>
      <trkpt lat="44.25114" lon="1.35498">
        <ele>133.28</ele>
        <time>2023-03-22T15:49:05Z</time>
      </trkpt>
      <trkpt lat="44.25129" lon="1.35511">
        <ele>133.28</ele>
        <time>2023-03-22T15:49:20Z</time>
      </trkpt>
      <trkpt lat="44.25148" lon="1.35527">
        <ele>132.8</ele>
        <time>2023-03-22T15:49:38Z</time>
      </trkpt>
      <trkpt lat="44.25162" lon="1.3554">
        <ele>132.8</ele>
        <time>2023-03-22T15:49:50Z</time>
      </trkpt>
      <trkpt lat="44.25163" lon="1.35541">
        <ele>132.8</ele>
        <time>2023-03-22T15:49:51Z</time>
      </trkpt>
      <trkpt lat="44.25164" lon="1.35542">
        <ele>132.8</ele>
        <time>2023-03-22T15:49:52Z</time>
      </trkpt>
      <trkpt lat="44.25166" lon="1.35543">
        <ele>132.8</ele>
        <time>2023-03-22T15:49:53Z</time>
      </trkpt>
      <trkpt lat="44.25167" lon="1.35543">
        <ele>132.8</ele>
        <time>2023-03-22T15:49:54Z</time>
      </trkpt>
      <trkpt lat="44.25187" lon="1.3556">
        <ele>132.32</ele>
        <time>2023-03-22T15:50:11Z</time>
      </trkpt>
      <trkpt lat="44.25205" lon="1.35577">
        <ele>132.32</ele>
        <time>2023-03-22T15:50:27Z</time>
      </trkpt>
      <trkpt lat="44.25221" lon="1.35599">
        <ele>131.84</ele>
        <time>2023-03-22T15:50:45Z</time>
      </trkpt>
      <trkpt lat="44.25239" lon="1.35621">
        <ele>131.84</ele>
        <time>2023-03-22T15:51:04Z</time>
      </trkpt>
      <trkpt lat="44.25253" lon="1.35638">
        <ele>131.36</ele>
        <time>2023-03-22T15:51:20Z</time>
      </trkpt>
      <trkpt lat="44.2527" lon="1.35655">
        <ele>131.36</ele>
        <time>2023-03-22T15:51:37Z</time>
      </trkpt>
      <trkpt lat="44.25282" lon="1.35672">
        <ele>131.36</ele>
        <time>2023-03-22T15:51:52Z</time>
      </trkpt>
      <trkpt lat="44.25292" lon="1.35683">
        <ele>132.8</ele>
        <time>2023-03-22T15:52:02Z</time>
      </trkpt>
      <trkpt lat="44.25293" lon="1.35685">
        <ele>132.8</ele>
        <time>2023-03-22T15:52:03Z</time>
      </trkpt>
      <trkpt lat="44.25304" lon="1.35699">
        <ele>133.76</ele>
        <time>2023-03-22T15:52:16Z</time>
      </trkpt>
      <trkpt lat="44.25316" lon="1.35705">
        <ele>134.72</ele>
        <time>2023-03-22T15:52:29Z</time>
      </trkpt>
      <trkpt lat="44.25331" lon="1.35694">
        <ele>134.72</ele>
        <time>2023-03-22T15:52:44Z</time>
      </trkpt>
      <trkpt lat="44.25345" lon="1.35684">
        <ele>134.72</ele>
        <time>2023-03-22T15:52:59Z</time>
      </trkpt>
      <trkpt lat="44.25351" lon="1.35678">
        <ele>133.28</ele>
        <time>2023-03-22T15:53:12Z</time>
      </trkpt>
      <trkpt lat="44.2537" lon="1.35669">
        <ele>133.28</ele>
        <time>2023-03-22T15:53:30Z</time>
      </trkpt>
      <trkpt lat="44.25392" lon="1.35658">
        <ele>132.8</ele>
        <time>2023-03-22T15:53:49Z</time>
      </trkpt>
      <trkpt lat="44.25414" lon="1.35648">
        <ele>132.8</ele>
        <time>2023-03-22T15:54:06Z</time>
      </trkpt>
      <trkpt lat="44.25435" lon="1.35637">
        <ele>132.8</ele>
        <time>2023-03-22T15:54:25Z</time>
      </trkpt>
      <trkpt lat="44.25458" lon="1.35624">
        <ele>132.8</ele>
        <time>2023-03-22T15:54:44Z</time>
      </trkpt>
      <trkpt lat="44.2546" lon="1.35607">
        <ele>132.8</ele>
        <time>2023-03-22T15:54:58Z</time>
      </trkpt>
      <trkpt lat="44.25459" lon="1.35606">
        <ele>132.8</ele>
        <time>2023-03-22T15:54:59Z</time>
      </trkpt>
      <trkpt lat="44.25447" lon="1.35595">
        <ele>132.8</ele>
        <time>2023-03-22T15:55:12Z</time>
      </trkpt>
      <trkpt lat="44.25447" lon="1.35594">
        <ele>132.8</ele>
        <time>2023-03-22T15:55:13Z</time>
      </trkpt>
      <trkpt lat="44.2543" lon="1.35576">
        <ele>132.8</ele>
        <time>2023-03-22T15:55:31Z</time>
      </trkpt>
      <trkpt lat="44.25417" lon="1.35556">
        <ele>132.32</ele>
        <time>2023-03-22T15:55:49Z</time>
      </trkpt>
      <trkpt lat="44.25417" lon="1.35546">
        <ele>133.28</ele>
        <time>2023-03-22T15:56:01Z</time>
      </trkpt>
      <trkpt lat="44.25419" lon="1.35536">
        <ele>133.76</ele>
        <time>2023-03-22T15:56:10Z</time>
      </trkpt>
      <trkpt lat="44.25423" lon="1.35516">
        <ele>135.68</ele>
        <time>2023-03-22T15:56:24Z</time>
      </trkpt>
      <trkpt lat="44.25427" lon="1.35507">
        <ele>136.64</ele>
        <time>2023-03-22T15:56:34Z</time>
      </trkpt>
      <trkpt lat="44.25432" lon="1.35492">
        <ele>137.61</ele>
        <time>2023-03-22T15:56:48Z</time>
      </trkpt>
      <trkpt lat="44.25438" lon="1.35473">
        <ele>139.05</ele>
        <time>2023-03-22T15:57:04Z</time>
      </trkpt>
      <trkpt lat="44.25443" lon="1.35457">
        <ele>140.49</ele>
        <time>2023-03-22T15:57:19Z</time>
      </trkpt>
      <trkpt lat="44.25444" lon="1.35456">
        <ele>140.49</ele>
        <time>2023-03-22T15:57:20Z</time>
      </trkpt>
      <trkpt lat="44.25452" lon="1.35438">
        <ele>140.97</ele>
        <time>2023-03-22T15:57:35Z</time>
      </trkpt>
      <trkpt lat="44.25459" lon="1.3542">
        <ele>140.97</ele>
        <time>2023-03-22T15:57:50Z</time>
      </trkpt>
      <trkpt lat="44.25464" lon="1.35417">
        <ele>141.45</ele>
        <time>2023-03-22T15:57:56Z</time>
      </trkpt>
      <trkpt lat="44.25476" lon="1.35424">
        <ele>139.53</ele>
        <time>2023-03-22T15:58:11Z</time>
      </trkpt>
      <trkpt lat="44.2549" lon="1.35431">
        <ele>138.09</ele>
        <time>2023-03-22T15:58:26Z</time>
      </trkpt>
      <trkpt lat="44.25503" lon="1.35437">
        <ele>137.61</ele>
        <time>2023-03-22T15:58:40Z</time>
      </trkpt>
      <trkpt lat="44.25509" lon="1.35434">
        <ele>137.61</ele>
        <time>2023-03-22T15:58:53Z</time>
      </trkpt>
      <trkpt lat="44.2551" lon="1.35427">
        <ele>137.61</ele>
        <time>2023-03-22T15:59:03Z</time>
      </trkpt>
      <trkpt lat="44.25516" lon="1.35408">
        <ele>138.57</ele>
        <time>2023-03-22T15:59:17Z</time>
      </trkpt>
      <trkpt lat="44.25524" lon="1.35387">
        <ele>139.53</ele>
        <time>2023-03-22T15:59:34Z</time>
      </trkpt>
      <trkpt lat="44.25529" lon="1.35372">
        <ele>140.49</ele>
        <time>2023-03-22T15:59:48Z</time>
      </trkpt>
      <trkpt lat="44.25535" lon="1.35356">
        <ele>140.97</ele>
        <time>2023-03-22T16:00:02Z</time>
      </trkpt>
      <trkpt lat="44.25541" lon="1.35338">
        <ele>141.93</ele>
        <time>2023-03-22T16:00:17Z</time>
      </trkpt>
      <trkpt lat="44.25547" lon="1.35321">
        <ele>142.89</ele>
        <time>2023-03-22T16:00:32Z</time>
      </trkpt>
      <trkpt lat="44.25551" lon="1.35306">
        <ele>143.37</ele>
        <time>2023-03-22T16:00:45Z</time>
      </trkpt>
      <trkpt lat="44.25555" lon="1.35291">
        <ele>144.34</ele>
        <time>2023-03-22T16:00:58Z</time>
      </trkpt>
      <trkpt lat="44.25561" lon="1.35284">
        <ele>145.3</ele>
        <time>2023-03-22T16:01:12Z</time>
      </trkpt>
      <trkpt lat="44.25568" lon="1.35289">
        <ele>145.3</ele>
        <time>2023-03-22T16:01:21Z</time>
      </trkpt>
      <trkpt lat="44.25571" lon="1.353">
        <ele>145.3</ele>
        <time>2023-03-22T16:01:33Z</time>
      </trkpt>
      <trkpt lat="44.25579" lon="1.35314">
        <ele>145.3</ele>
        <time>2023-03-22T16:01:47Z</time>
      </trkpt>
      <trkpt lat="44.25589" lon="1.35328">
        <ele>145.3</ele>
        <time>2023-03-22T16:02:02Z</time>
      </trkpt>
      <trkpt lat="44.25598" lon="1.3534">
        <ele>146.26</ele>
        <time>2023-03-22T16:02:16Z</time>
      </trkpt>
      <trkpt lat="44.25606" lon="1.35354">
        <ele>147.22</ele>
        <time>2023-03-22T16:02:30Z</time>
      </trkpt>
      <trkpt lat="44.25614" lon="1.35366">
        <ele>149.62</ele>
        <time>2023-03-22T16:02:45Z</time>
      </trkpt>
      <trkpt lat="44.25622" lon="1.35375">
        <ele>150.58</ele>
        <time>2023-03-22T16:03:02Z</time>
      </trkpt>
      <trkpt lat="44.2563" lon="1.35381">
        <ele>152.99</ele>
        <time>2023-03-22T16:03:17Z</time>
      </trkpt>
      <trkpt lat="44.25639" lon="1.3539">
        <ele>154.91</ele>
        <time>2023-03-22T16:03:34Z</time>
      </trkpt>
      <trkpt lat="44.25648" lon="1.35397">
        <ele>156.83</ele>
        <time>2023-03-22T16:03:49Z</time>
      </trkpt>
      <trkpt lat="44.25658" lon="1.35404">
        <ele>158.27</ele>
        <time>2023-03-22T16:04:07Z</time>
      </trkpt>
      <trkpt lat="44.25669" lon="1.35406">
        <ele>161.16</ele>
        <time>2023-03-22T16:04:23Z</time>
      </trkpt>
      <trkpt lat="44.2568" lon="1.35414">
        <ele>162.6</ele>
        <time>2023-03-22T16:04:37Z</time>
      </trkpt>
      <trkpt lat="44.25693" lon="1.35418">
        <ele>162.6</ele>
        <time>2023-03-22T16:04:51Z</time>
      </trkpt>
      <trkpt lat="44.25705" lon="1.35424">
        <ele>164.04</ele>
        <time>2023-03-22T16:05:06Z</time>
      </trkpt>
      <trkpt lat="44.25719" lon="1.35433">
        <ele>165.48</ele>
        <time>2023-03-22T16:05:22Z</time>
      </trkpt>
      <trkpt lat="44.25729" lon="1.3544">
        <ele>165.48</ele>
        <time>2023-03-22T16:05:34Z</time>
      </trkpt>
      <trkpt lat="44.25739" lon="1.35446">
        <ele>166.45</ele>
        <time>2023-03-22T16:05:48Z</time>
      </trkpt>
      <trkpt lat="44.2575" lon="1.35452">
        <ele>166.93</ele>
        <time>2023-03-22T16:06:02Z</time>
      </trkpt>
      <trkpt lat="44.25757" lon="1.35457">
        <ele>167.41</ele>
        <time>2023-03-22T16:06:15Z</time>
      </trkpt>
      <trkpt lat="44.25762" lon="1.35461">
        <ele>168.37</ele>
        <time>2023-03-22T16:06:30Z</time>
      </trkpt>
      <trkpt lat="44.25767" lon="1.35463">
        <ele>168.37</ele>
        <time>2023-03-22T16:06:48Z</time>
      </trkpt>
      <trkpt lat="44.25779" lon="1.35471">
        <ele>168.85</ele>
        <time>2023-03-22T16:07:03Z</time>
      </trkpt>
      <trkpt lat="44.25789" lon="1.35477">
        <ele>169.33</ele>
        <time>2023-03-22T16:07:16Z</time>
      </trkpt>
      <trkpt lat="44.25801" lon="1.35488">
        <ele>169.81</ele>
        <time>2023-03-22T16:07:31Z</time>
      </trkpt>
      <trkpt lat="44.25814" lon="1.35497">
        <ele>169.81</ele>
        <time>2023-03-22T16:07:45Z</time>
      </trkpt>
      <trkpt lat="44.25828" lon="1.35507">
        <ele>170.77</ele>
        <time>2023-03-22T16:08:01Z</time>
      </trkpt>
      <trkpt lat="44.25841" lon="1.35513">
        <ele>171.25</ele>
        <time>2023-03-22T16:08:18Z</time>
      </trkpt>
      <trkpt lat="44.25856" lon="1.35516">
        <ele>171.73</ele>
        <time>2023-03-22T16:08:33Z</time>
      </trkpt>
      <trkpt lat="44.25868" lon="1.35517">
        <ele>171.73</ele>
        <time>2023-03-22T16:08:48Z</time>
      </trkpt>
      <trkpt lat="44.25882" lon="1.35516">
        <ele>172.21</ele>
        <time>2023-03-22T16:09:03Z</time>
      </trkpt>
      <trkpt lat="44.25898" lon="1.35515">
        <ele>172.21</ele>
        <time>2023-03-22T16:09:18Z</time>
      </trkpt>
      <trkpt lat="44.25916" lon="1.35516">
        <ele>173.17</ele>
        <time>2023-03-22T16:09:35Z</time>
      </trkpt>
      <trkpt lat="44.2593" lon="1.35517">
        <ele>173.66</ele>
        <time>2023-03-22T16:09:48Z</time>
      </trkpt>
      <trkpt lat="44.25944" lon="1.35516">
        <ele>174.14</ele>
        <time>2023-03-22T16:10:02Z</time>
      </trkpt>
      <trkpt lat="44.25951" lon="1.35517">
        <ele>173.66</ele>
        <time>2023-03-22T16:10:15Z</time>
      </trkpt>
      <trkpt lat="44.25963" lon="1.35519">
        <ele>173.66</ele>
        <time>2023-03-22T16:10:28Z</time>
      </trkpt>
      <trkpt lat="44.25967" lon="1.35521">
        <ele>173.66</ele>
        <time>2023-03-22T16:10:31Z</time>
      </trkpt>
      <trkpt lat="44.2598" lon="1.35526">
        <ele>174.14</ele>
        <time>2023-03-22T16:10:45Z</time>
      </trkpt>
      <trkpt lat="44.25992" lon="1.35518">
        <ele>175.1</ele>
        <time>2023-03-22T16:11:01Z</time>
      </trkpt>
      <trkpt lat="44.26006" lon="1.35507">
        <ele>175.1</ele>
        <time>2023-03-22T16:11:16Z</time>
      </trkpt>
      <trkpt lat="44.26013" lon="1.35501">
        <ele>174.14</ele>
        <time>2023-03-22T16:11:24Z</time>
      </trkpt>
      <trkpt lat="44.26019" lon="1.35494">
        <ele>173.66</ele>
        <time>2023-03-22T16:11:32Z</time>
      </trkpt>
      <trkpt lat="44.26034" lon="1.35482">
        <ele>172.69</ele>
        <time>2023-03-22T16:11:46Z</time>
      </trkpt>
      <trkpt lat="44.26047" lon="1.3547">
        <ele>172.21</ele>
        <time>2023-03-22T16:12:01Z</time>
      </trkpt>
      <trkpt lat="44.26061" lon="1.35457">
        <ele>171.73</ele>
        <time>2023-03-22T16:12:15Z</time>
      </trkpt>
      <trkpt lat="44.26076" lon="1.35442">
        <ele>171.73</ele>
        <time>2023-03-22T16:12:30Z</time>
      </trkpt>
      <trkpt lat="44.26088" lon="1.35432">
        <ele>171.25</ele>
        <time>2023-03-22T16:12:44Z</time>
      </trkpt>
      <trkpt lat="44.26105" lon="1.35417">
        <ele>169.81</ele>
        <time>2023-03-22T16:13:00Z</time>
      </trkpt>
      <trkpt lat="44.26119" lon="1.35404">
        <ele>168.37</ele>
        <time>2023-03-22T16:13:15Z</time>
      </trkpt>
      <trkpt lat="44.26132" lon="1.35394">
        <ele>165.96</ele>
        <time>2023-03-22T16:13:29Z</time>
      </trkpt>
      <trkpt lat="44.26142" lon="1.35386">
        <ele>164.52</ele>
        <time>2023-03-22T16:13:42Z</time>
      </trkpt>
      <trkpt lat="44.26154" lon="1.35379">
        <ele>162.12</ele>
        <time>2023-03-22T16:13:57Z</time>
      </trkpt>
      <trkpt lat="44.26172" lon="1.35375">
        <ele>159.72</ele>
        <time>2023-03-22T16:14:14Z</time>
      </trkpt>
      <trkpt lat="44.26187" lon="1.35375">
        <ele>156.83</ele>
        <time>2023-03-22T16:14:29Z</time>
      </trkpt>
      <trkpt lat="44.262" lon="1.35377">
        <ele>153.95</ele>
        <time>2023-03-22T16:14:43Z</time>
      </trkpt>
      <trkpt lat="44.26215" lon="1.35376">
        <ele>152.03</ele>
        <time>2023-03-22T16:14:57Z</time>
      </trkpt>
      <trkpt lat="44.26227" lon="1.35375">
        <ele>150.58</ele>
        <time>2023-03-22T16:15:11Z</time>
      </trkpt>
      <trkpt lat="44.26243" lon="1.35376">
        <ele>149.14</ele>
        <time>2023-03-22T16:15:27Z</time>
      </trkpt>
      <trkpt lat="44.26256" lon="1.35375">
        <ele>149.14</ele>
        <time>2023-03-22T16:15:39Z</time>
      </trkpt>
      <trkpt lat="44.26266" lon="1.35372">
        <ele>149.14</ele>
        <time>2023-03-22T16:15:54Z</time>
      </trkpt>
      <trkpt lat="44.26273" lon="1.35371">
        <ele>149.14</ele>
        <time>2023-03-22T16:16:07Z</time>
      </trkpt>
      <trkpt lat="44.26274" lon="1.35371">
        <ele>149.14</ele>
        <time>2023-03-22T16:16:20Z</time>
      </trkpt>
      <trkpt lat="44.26275" lon="1.35371">
        <ele>149.14</ele>
        <time>2023-03-22T16:16:26Z</time>
      </trkpt>
      <trkpt lat="44.2628" lon="1.35369">
        <ele>149.14</ele>
        <time>2023-03-22T16:16:31Z</time>
      </trkpt>
      <trkpt lat="44.26282" lon="1.3537">
        <ele>149.14</ele>
        <time>2023-03-22T16:16:34Z</time>
      </trkpt>
      <trkpt lat="44.26285" lon="1.3537">
        <ele>150.58</ele>
        <time>2023-03-22T16:16:37Z</time>
      </trkpt>
      <trkpt lat="44.26293" lon="1.35369">
        <ele>152.03</ele>
        <time>2023-03-22T16:16:47Z</time>
      </trkpt>
      <trkpt lat="44.26297" lon="1.3537">
        <ele>152.03</ele>
        <time>2023-03-22T16:16:51Z</time>
      </trkpt>
      <trkpt lat="44.263" lon="1.3537">
        <ele>152.99</ele>
        <time>2023-03-22T16:16:55Z</time>
      </trkpt>
      <trkpt lat="44.26307" lon="1.3537">
        <ele>153.47</ele>
        <time>2023-03-22T16:17:02Z</time>
      </trkpt>
      <trkpt lat="44.26314" lon="1.35369">
        <ele>154.43</ele>
        <time>2023-03-22T16:17:13Z</time>
      </trkpt>
      <trkpt lat="44.26322" lon="1.3537">
        <ele>156.35</ele>
        <time>2023-03-22T16:17:30Z</time>
      </trkpt>
      <trkpt lat="44.26332" lon="1.35371">
        <ele>155.87</ele>
        <time>2023-03-22T16:17:44Z</time>
      </trkpt>
      <trkpt lat="44.26333" lon="1.35371">
        <ele>157.79</ele>
        <time>2023-03-22T16:17:46Z</time>
      </trkpt>
      <trkpt lat="44.26334" lon="1.35371">
        <ele>156.35</ele>
        <time>2023-03-22T16:17:48Z</time>
      </trkpt>
      <trkpt lat="44.26335" lon="1.35371">
        <ele>158.27</ele>
        <time>2023-03-22T16:17:50Z</time>
      </trkpt>
      <trkpt lat="44.26342" lon="1.35372">
        <ele>161.16</ele>
        <time>2023-03-22T16:17:59Z</time>
      </trkpt>
      <trkpt lat="44.26342" lon="1.35372">
        <ele>159.72</ele>
        <time>2023-03-22T16:18:00Z</time>
      </trkpt>
      <trkpt lat="44.26345" lon="1.35372">
        <ele>161.16</ele>
        <time>2023-03-22T16:18:07Z</time>
      </trkpt>
      <trkpt lat="44.26347" lon="1.35372">
        <ele>159.72</ele>
        <time>2023-03-22T16:18:09Z</time>
      </trkpt>
      <trkpt lat="44.26352" lon="1.35374">
        <ele>162.6</ele>
        <time>2023-03-22T16:18:19Z</time>
      </trkpt>
      <trkpt lat="44.26354" lon="1.35374">
        <ele>160.2</ele>
        <time>2023-03-22T16:18:21Z</time>
      </trkpt>
      <trkpt lat="44.2636" lon="1.35376">
        <ele>162.6</ele>
        <time>2023-03-22T16:18:29Z</time>
      </trkpt>
      <trkpt lat="44.26367" lon="1.35376">
        <ele>164.52</ele>
        <time>2023-03-22T16:18:39Z</time>
      </trkpt>
      <trkpt lat="44.26367" lon="1.35376">
        <ele>164.52</ele>
        <time>2023-03-22T16:18:40Z</time>
      </trkpt>
      <trkpt lat="44.26369" lon="1.35376">
        <ele>164.52</ele>
        <time>2023-03-22T16:18:43Z</time>
      </trkpt>
      <trkpt lat="44.26376" lon="1.35375">
        <ele>167.89</ele>
        <time>2023-03-22T16:18:54Z</time>
      </trkpt>
      <trkpt lat="44.26383" lon="1.35376">
        <ele>168.85</ele>
        <time>2023-03-22T16:19:07Z</time>
      </trkpt>
      <trkpt lat="44.26385" lon="1.35376">
        <ele>168.85</ele>
        <time>2023-03-22T16:19:10Z</time>
      </trkpt>
      <trkpt lat="44.26388" lon="1.35376">
        <ele>168.85</ele>
        <time>2023-03-22T16:19:13Z</time>
      </trkpt>
      <trkpt lat="44.2639" lon="1.35376">
        <ele>168.85</ele>
        <time>2023-03-22T16:19:15Z</time>
      </trkpt>
      <trkpt lat="44.26394" lon="1.35376">
        <ele>170.29</ele>
        <time>2023-03-22T16:19:20Z</time>
      </trkpt>
      <trkpt lat="44.26404" lon="1.3538">
        <ele>172.21</ele>
        <time>2023-03-22T16:19:34Z</time>
      </trkpt>
      <trkpt lat="44.26415" lon="1.35377">
        <ele>174.62</ele>
        <time>2023-03-22T16:19:52Z</time>
      </trkpt>
      <trkpt lat="44.26426" lon="1.35373">
        <ele>176.54</ele>
        <time>2023-03-22T16:20:07Z</time>
      </trkpt>
      <trkpt lat="44.26435" lon="1.35369">
        <ele>178.46</ele>
        <time>2023-03-22T16:20:23Z</time>
      </trkpt>
      <trkpt lat="44.26446" lon="1.35366">
        <ele>180.87</ele>
        <time>2023-03-22T16:20:39Z</time>
      </trkpt>
      <trkpt lat="44.26455" lon="1.35366">
        <ele>182.31</ele>
        <time>2023-03-22T16:20:53Z</time>
      </trkpt>
      <trkpt lat="44.26468" lon="1.35369">
        <ele>185.19</ele>
        <time>2023-03-22T16:21:10Z</time>
      </trkpt>
      <trkpt lat="44.26477" lon="1.3537">
        <ele>187.11</ele>
        <time>2023-03-22T16:21:23Z</time>
      </trkpt>
      <trkpt lat="44.26488" lon="1.35371">
        <ele>188.56</ele>
        <time>2023-03-22T16:21:37Z</time>
      </trkpt>
      <trkpt lat="44.265" lon="1.3537">
        <ele>190.96</ele>
        <time>2023-03-22T16:21:52Z</time>
      </trkpt>
      <trkpt lat="44.26501" lon="1.3537">
        <ele>190.96</ele>
        <time>2023-03-22T16:21:53Z</time>
      </trkpt>
      <trkpt lat="44.26509" lon="1.35355">
        <ele>190.96</ele>
        <time>2023-03-22T16:22:05Z</time>
      </trkpt>
      <trkpt lat="44.26516" lon="1.35343">
        <ele>190</ele>
        <time>2023-03-22T16:22:17Z</time>
      </trkpt>
      <trkpt lat="44.2653" lon="1.35325">
        <ele>188.56</ele>
        <time>2023-03-22T16:22:34Z</time>
      </trkpt>
      <trkpt lat="44.2654" lon="1.35298">
        <ele>186.15</ele>
        <time>2023-03-22T16:22:52Z</time>
      </trkpt>
      <trkpt lat="44.26547" lon="1.35277">
        <ele>184.23</ele>
        <time>2023-03-22T16:23:06Z</time>
      </trkpt>
      <trkpt lat="44.26555" lon="1.35254">
        <ele>183.27</ele>
        <time>2023-03-22T16:23:22Z</time>
      </trkpt>
      <trkpt lat="44.26567" lon="1.35232">
        <ele>182.31</ele>
        <time>2023-03-22T16:23:39Z</time>
      </trkpt>
      <trkpt lat="44.26581" lon="1.35217">
        <ele>181.83</ele>
        <time>2023-03-22T16:23:54Z</time>
      </trkpt>
      <trkpt lat="44.26596" lon="1.35201">
        <ele>181.83</ele>
        <time>2023-03-22T16:24:10Z</time>
      </trkpt>
      <trkpt lat="44.26609" lon="1.35187">
        <ele>181.83</ele>
        <time>2023-03-22T16:24:25Z</time>
      </trkpt>
      <trkpt lat="44.26623" lon="1.35173">
        <ele>181.83</ele>
        <time>2023-03-22T16:24:41Z</time>
      </trkpt>
      <trkpt lat="44.26631" lon="1.35172">
        <ele>183.27</ele>
        <time>2023-03-22T16:24:52Z</time>
      </trkpt>
      <trkpt lat="44.26637" lon="1.35179">
        <ele>185.19</ele>
        <time>2023-03-22T16:25:06Z</time>
      </trkpt>
      <trkpt lat="44.26646" lon="1.35187">
        <ele>188.08</ele>
        <time>2023-03-22T16:25:24Z</time>
      </trkpt>
      <trkpt lat="44.26652" lon="1.35193">
        <ele>190</ele>
        <time>2023-03-22T16:25:37Z</time>
      </trkpt>
      <trkpt lat="44.26661" lon="1.35201">
        <ele>192.4</ele>
        <time>2023-03-22T16:25:54Z</time>
      </trkpt>
      <trkpt lat="44.26671" lon="1.3521">
        <ele>194.8</ele>
        <time>2023-03-22T16:26:09Z</time>
      </trkpt>
      <trkpt lat="44.26677" lon="1.35217">
        <ele>197.21</ele>
        <time>2023-03-22T16:26:25Z</time>
      </trkpt>
      <trkpt lat="44.26684" lon="1.35222">
        <ele>199.61</ele>
        <time>2023-03-22T16:26:39Z</time>
      </trkpt>
      <trkpt lat="44.26692" lon="1.35227">
        <ele>200.57</ele>
        <time>2023-03-22T16:26:53Z</time>
      </trkpt>
      <trkpt lat="44.26697" lon="1.35233">
        <ele>202.98</ele>
        <time>2023-03-22T16:27:07Z</time>
      </trkpt>
      <trkpt lat="44.26705" lon="1.35237">
        <ele>205.86</ele>
        <time>2023-03-22T16:27:24Z</time>
      </trkpt>
      <trkpt lat="44.26711" lon="1.35241">
        <ele>207.78</ele>
        <time>2023-03-22T16:27:37Z</time>
      </trkpt>
      <trkpt lat="44.26716" lon="1.35247">
        <ele>210.19</ele>
        <time>2023-03-22T16:27:51Z</time>
      </trkpt>
      <trkpt lat="44.2672" lon="1.35253">
        <ele>212.59</ele>
        <time>2023-03-22T16:28:06Z</time>
      </trkpt>
      <trkpt lat="44.26722" lon="1.35259">
        <ele>214.03</ele>
        <time>2023-03-22T16:28:20Z</time>
      </trkpt>
      <trkpt lat="44.26721" lon="1.3527">
        <ele>216.43</ele>
        <time>2023-03-22T16:28:34Z</time>
      </trkpt>
      <trkpt lat="44.2672" lon="1.35281">
        <ele>217.4</ele>
        <time>2023-03-22T16:28:47Z</time>
      </trkpt>
      <trkpt lat="44.26717" lon="1.35295">
        <ele>219.8</ele>
        <time>2023-03-22T16:29:04Z</time>
      </trkpt>
      <trkpt lat="44.26719" lon="1.35304">
        <ele>221.24</ele>
        <time>2023-03-22T16:29:19Z</time>
      </trkpt>
      <trkpt lat="44.26728" lon="1.35298">
        <ele>223.64</ele>
        <time>2023-03-22T16:29:35Z</time>
      </trkpt>
      <trkpt lat="44.26732" lon="1.35292">
        <ele>225.09</ele>
        <time>2023-03-22T16:29:47Z</time>
      </trkpt>
      <trkpt lat="44.2673" lon="1.35298">
        <ele>227.49</ele>
        <time>2023-03-22T16:30:01Z</time>
      </trkpt>
      <trkpt lat="44.26725" lon="1.35301">
        <ele>228.93</ele>
        <time>2023-03-22T16:30:17Z</time>
      </trkpt>
      <trkpt lat="44.26735" lon="1.35308">
        <ele>230.37</ele>
        <time>2023-03-22T16:30:30Z</time>
      </trkpt>
      <trkpt lat="44.26746" lon="1.35307">
        <ele>231.33</ele>
        <time>2023-03-22T16:30:44Z</time>
      </trkpt>
      <trkpt lat="44.26762" lon="1.3531">
        <ele>231.33</ele>
        <time>2023-03-22T16:31:00Z</time>
      </trkpt>
      <trkpt lat="44.26777" lon="1.35313">
        <ele>231.81</ele>
        <time>2023-03-22T16:31:13Z</time>
      </trkpt>
      <trkpt lat="44.2679" lon="1.35322">
        <ele>232.3</ele>
        <time>2023-03-22T16:31:27Z</time>
      </trkpt>
      <trkpt lat="44.26798" lon="1.35324">
        <ele>231.81</ele>
        <time>2023-03-22T16:31:43Z</time>
      </trkpt>
      <trkpt lat="44.26806" lon="1.35324">
        <ele>231.81</ele>
        <time>2023-03-22T16:31:58Z</time>
      </trkpt>
      <trkpt lat="44.26807" lon="1.35322">
        <ele>231.81</ele>
        <time>2023-03-22T16:32:12Z</time>
      </trkpt>
      <trkpt lat="44.26805" lon="1.35322">
        <ele>232.3</ele>
        <time>2023-03-22T16:32:31Z</time>
      </trkpt>
      <trkpt lat="44.26807" lon="1.35319">
        <ele>232.78</ele>
        <time>2023-03-22T16:32:59Z</time>
      </trkpt>
      <trkpt lat="44.26807" lon="1.35318">
        <ele>232.78</ele>
        <time>2023-03-22T16:33:32Z</time>
      </trkpt>
    </trkseg>
  </trk>
</gpx>